<?xml version="1.0" encoding="UTF-8"?>
<gpx version="1.1" creator="2bulu-scraper" xmlns="http://www.topografix.com/GPX/1/1">
  <metadata><name>合江福宝玉兰山佛经岩步道➕烟雨岩步道</name><desc>source: 2bulu.com trackId=84193555; exported 2026-09-01T14:53:55.797Z</desc>
    <bounds minlat="28.6594872" minlon="106.1224361" maxlat="28.6746375" maxlon="106.1381709"/>
    <link href="https://www.2bulu.com/track/t-I3V6bjo8ptLp%252FR2KBg5Tzw%253D%253D.htm"><text>2bulu 源页面</text></link>
  </metadata>
  <wpt lat="28.6718511" lon="106.1264374"><ele>959</ele><name>
        </name></wpt>
  <wpt lat="28.6725708" lon="106.1260145"><ele>931</ele><name>
        </name></wpt>
  <wpt lat="28.6733933" lon="106.1257839"><ele>911</ele><name>
        </name></wpt>
  <wpt lat="28.6724804" lon="106.1233676"><ele>918</ele><name>好汉坡
        </name></wpt>
  <wpt lat="28.6718811" lon="106.1234982"><ele>960</ele><name>野生刺莓？
        </name></wpt>
  <wpt lat="28.6624166" lon="106.1328633"><ele>971</ele><name>
        </name></wpt>
  <wpt lat="28.6624166" lon="106.1328633"><ele>971</ele><name>佛经岩
        </name></wpt>
  <wpt lat="28.6615609" lon="106.1349599"><ele>970</ele><name>
        </name></wpt>
  <wpt lat="28.659557" lon="106.1380173"><ele>896</ele><name>
        </name></wpt>
  <wpt lat="28.659977" lon="106.1379757"><ele>887</ele><name>全是泉水
        </name></wpt>
  <wpt lat="28.6609579" lon="106.1381709"><ele>885</ele><name>
        </name></wpt>
  <wpt lat="28.6631871" lon="106.1362353"><ele>887</ele><name>树藤秋千，可以打卡拍照
        </name></wpt>
  <wpt lat="28.6650098" lon="106.1337816"><ele>876</ele><name>下回去探索
        </name></wpt>
  <wpt lat="28.6655825" lon="106.1323341"><ele>909</ele><name>厕所，水龙头有水
        </name></wpt>
  <trk><name>合江福宝玉兰山佛经岩步道➕烟雨岩步道</name>
      <trkseg>
        <trkpt lat="28.6718511" lon="106.1264374"><ele>959.47</ele><time>2026-05-13T18:48:56.000Z</time></trkpt>
        <trkpt lat="28.6719117" lon="106.1264808"><ele>959.47</ele><time>2026-05-13T18:49:43.000Z</time></trkpt>
        <trkpt lat="28.6720026" lon="106.1265337"><ele>959.48</ele><time>2026-05-13T18:49:53.000Z</time></trkpt>
        <trkpt lat="28.6721047" lon="106.1265131"><ele>959.52</ele><time>2026-05-13T18:50:03.000Z</time></trkpt>
        <trkpt lat="28.6721718" lon="106.1264318"><ele>958.92</ele><time>2026-05-13T18:50:11.000Z</time></trkpt>
        <trkpt lat="28.6722099" lon="106.1263708"><ele>958.09</ele><time>2026-05-13T18:50:15.000Z</time></trkpt>
        <trkpt lat="28.6722653" lon="106.1262945"><ele>957.78</ele><time>2026-05-13T18:50:33.000Z</time></trkpt>
        <trkpt lat="28.6723501" lon="106.1262617"><ele>956.04</ele><time>2026-05-13T18:50:47.000Z</time></trkpt>
        <trkpt lat="28.6724456" lon="106.1262682"><ele>953.8</ele><time>2026-05-13T18:51:09.000Z</time></trkpt>
        <trkpt lat="28.672549" lon="106.1262936"><ele>951.05</ele><time>2026-05-13T18:51:29.000Z</time></trkpt>
        <trkpt lat="28.6725934" lon="106.1262293"><ele>946.81</ele><time>2026-05-13T18:51:57.000Z</time></trkpt>
        <trkpt lat="28.6726128" lon="106.1261242"><ele>941.55</ele><time>2026-05-13T18:52:07.000Z</time></trkpt>
        <trkpt lat="28.6725708" lon="106.1260145"><ele>938.25</ele><time>2026-05-13T18:52:21.000Z</time></trkpt>
        <trkpt lat="28.6726271" lon="106.1259924"><ele>934.95</ele><time>2026-05-13T18:52:43.000Z</time></trkpt>
        <trkpt lat="28.672687" lon="106.1259909"><ele>932.81</ele><time>2026-05-13T18:52:51.000Z</time></trkpt>
        <trkpt lat="28.6727513" lon="106.1259351"><ele>931.42</ele><time>2026-05-13T18:53:15.000Z</time></trkpt>
        <trkpt lat="28.6728401" lon="106.1259334"><ele>927.89</ele><time>2026-05-13T18:53:33.000Z</time></trkpt>
        <trkpt lat="28.6729353" lon="106.1259557"><ele>925.03</ele><time>2026-05-13T18:53:45.000Z</time></trkpt>
        <trkpt lat="28.6730195" lon="106.1260099"><ele>923.34</ele><time>2026-05-13T18:54:01.000Z</time></trkpt>
        <trkpt lat="28.6731093" lon="106.1260666"><ele>922.1</ele><time>2026-05-13T18:54:15.000Z</time></trkpt>
        <trkpt lat="28.6731976" lon="106.1261132"><ele>920.19</ele><time>2026-05-13T18:54:27.000Z</time></trkpt>
        <trkpt lat="28.6732881" lon="106.1260889"><ele>917.92</ele><time>2026-05-13T18:54:41.000Z</time></trkpt>
        <trkpt lat="28.6733417" lon="106.1259966"><ele>913.81</ele><time>2026-05-13T18:54:51.000Z</time></trkpt>
        <trkpt lat="28.6733889" lon="106.1258978"><ele>910.7</ele><time>2026-05-13T18:55:03.000Z</time></trkpt>
        <trkpt lat="28.6733933" lon="106.1257839"><ele>910.13</ele><time>2026-05-13T18:55:13.000Z</time></trkpt>
        <trkpt lat="28.6734133" lon="106.1257145"><ele>910.5</ele><time>2026-05-13T18:55:25.000Z</time></trkpt>
        <trkpt lat="28.6734839" lon="106.1256825"><ele>908.78</ele><time>2026-05-13T18:55:35.000Z</time></trkpt>
        <trkpt lat="28.6735399" lon="106.1256094"><ele>907.64</ele><time>2026-05-13T18:55:45.000Z</time></trkpt>
        <trkpt lat="28.6735793" lon="106.1255158"><ele>907.59</ele><time>2026-05-13T18:55:51.000Z</time></trkpt>
        <trkpt lat="28.6736552" lon="106.125474"><ele>907.15</ele><time>2026-05-13T18:55:59.000Z</time></trkpt>
        <trkpt lat="28.6737443" lon="106.1255032"><ele>907.09</ele><time>2026-05-13T18:56:05.000Z</time></trkpt>
        <trkpt lat="28.673848" lon="106.1255257"><ele>906.43</ele><time>2026-05-13T18:56:15.000Z</time></trkpt>
        <trkpt lat="28.6739436" lon="106.1255216"><ele>906.73</ele><time>2026-05-13T18:56:29.000Z</time></trkpt>
        <trkpt lat="28.6739165" lon="106.12547"><ele>905.55</ele><time>2026-05-13T18:56:43.000Z</time></trkpt>
        <trkpt lat="28.6738336" lon="106.1254126"><ele>903.29</ele><time>2026-05-13T18:56:53.000Z</time></trkpt>
        <trkpt lat="28.6738684" lon="106.1253584"><ele>901.37</ele><time>2026-05-13T18:57:09.000Z</time></trkpt>
        <trkpt lat="28.673951" lon="106.1253272"><ele>896.42</ele><time>2026-05-13T18:57:19.000Z</time></trkpt>
        <trkpt lat="28.6740533" lon="106.1253122"><ele>892.91</ele><time>2026-05-13T18:57:35.000Z</time></trkpt>
        <trkpt lat="28.6741172" lon="106.1252373"><ele>889.34</ele><time>2026-05-13T18:57:53.000Z</time></trkpt>
        <trkpt lat="28.6741219" lon="106.1251614"><ele>885.32</ele><time>2026-05-13T18:58:07.000Z</time></trkpt>
        <trkpt lat="28.674157" lon="106.1250734"><ele>882.11</ele><time>2026-05-13T18:58:31.000Z</time></trkpt>
        <trkpt lat="28.6741623" lon="106.1249694"><ele>878.38</ele><time>2026-05-13T18:58:51.000Z</time></trkpt>
        <trkpt lat="28.6741729" lon="106.1248593"><ele>873.08</ele><time>2026-05-13T18:58:59.000Z</time></trkpt>
        <trkpt lat="28.6742514" lon="106.1248007"><ele>869.77</ele><time>2026-05-13T18:59:15.000Z</time></trkpt>
        <trkpt lat="28.6743546" lon="106.1247825"><ele>865.01</ele><time>2026-05-13T18:59:25.000Z</time></trkpt>
        <trkpt lat="28.6744608" lon="106.1247437"><ele>861.94</ele><time>2026-05-13T18:59:35.000Z</time></trkpt>
        <trkpt lat="28.6745411" lon="106.1246738"><ele>860.54</ele><time>2026-05-13T18:59:43.000Z</time></trkpt>
        <trkpt lat="28.6745333" lon="106.1245729"><ele>858.98</ele><time>2026-05-13T18:59:57.000Z</time></trkpt>
        <trkpt lat="28.6744913" lon="106.1244732"><ele>859.22</ele><time>2026-05-13T19:00:11.000Z</time></trkpt>
        <trkpt lat="28.674487" lon="106.1243569"><ele>859.02</ele><time>2026-05-13T19:00:21.000Z</time></trkpt>
        <trkpt lat="28.6745393" lon="106.1242601"><ele>855.21</ele><time>2026-05-13T19:00:33.000Z</time></trkpt>
        <trkpt lat="28.6745669" lon="106.1242069"><ele>847.83</ele><time>2026-05-13T19:00:41.000Z</time></trkpt>
        <trkpt lat="28.6746375" lon="106.1241708"><ele>842.3</ele><time>2026-05-13T19:01:17.000Z</time></trkpt>
        <trkpt lat="28.6745476" lon="106.1241223"><ele>836.31</ele><time>2026-05-13T19:03:20.000Z</time></trkpt>
        <trkpt lat="28.6744273" lon="106.1241327"><ele>829.54</ele><time>2026-05-13T19:03:28.000Z</time></trkpt>
        <trkpt lat="28.6743294" lon="106.12415"><ele>823.92</ele><time>2026-05-13T19:03:46.000Z</time></trkpt>
        <trkpt lat="28.6742366" lon="106.1241137"><ele>821.74</ele><time>2026-05-13T19:05:24.000Z</time></trkpt>
        <trkpt lat="28.6741371" lon="106.124096"><ele>820.55</ele><time>2026-05-13T19:05:34.000Z</time></trkpt>
        <trkpt lat="28.6741431" lon="106.1241655"><ele>819.96</ele><time>2026-05-13T19:05:46.000Z</time></trkpt>
        <trkpt lat="28.6742038" lon="106.1240486"><ele>822.83</ele><time>2026-05-13T19:11:04.000Z</time></trkpt>
        <trkpt lat="28.6742406" lon="106.1239481"><ele>820.89</ele><time>2026-05-13T19:11:12.000Z</time></trkpt>
        <trkpt lat="28.6742134" lon="106.1238435"><ele>822.05</ele><time>2026-05-13T19:11:22.000Z</time></trkpt>
        <trkpt lat="28.6741793" lon="106.1239021"><ele>822.97</ele><time>2026-05-13T19:11:40.000Z</time></trkpt>
        <trkpt lat="28.6741234" lon="106.12399"><ele>824.81</ele><time>2026-05-13T19:12:22.000Z</time></trkpt>
        <trkpt lat="28.6740751" lon="106.124102"><ele>827.44</ele><time>2026-05-13T19:12:54.000Z</time></trkpt>
        <trkpt lat="28.6739998" lon="106.1241752"><ele>829.73</ele><time>2026-05-13T19:13:02.000Z</time></trkpt>
        <trkpt lat="28.6739062" lon="106.1242158"><ele>830.58</ele><time>2026-05-13T19:13:38.000Z</time></trkpt>
        <trkpt lat="28.6738126" lon="106.1242755"><ele>832.49</ele><time>2026-05-13T19:13:50.000Z</time></trkpt>
        <trkpt lat="28.6737133" lon="106.1243297"><ele>833.98</ele><time>2026-05-13T19:14:00.000Z</time></trkpt>
        <trkpt lat="28.6736226" lon="106.1243773"><ele>836.82</ele><time>2026-05-13T19:14:12.000Z</time></trkpt>
        <trkpt lat="28.6736052" lon="106.1244656"><ele>839</ele><time>2026-05-13T19:14:22.000Z</time></trkpt>
        <trkpt lat="28.6735265" lon="106.1244858"><ele>840.22</ele><time>2026-05-13T19:15:38.000Z</time></trkpt>
        <trkpt lat="28.6734335" lon="106.1245123"><ele>841.18</ele><time>2026-05-13T19:15:54.000Z</time></trkpt>
        <trkpt lat="28.6733404" lon="106.1245436"><ele>842.92</ele><time>2026-05-13T19:16:26.000Z</time></trkpt>
        <trkpt lat="28.6732405" lon="106.1245668"><ele>844.34</ele><time>2026-05-13T19:16:38.000Z</time></trkpt>
        <trkpt lat="28.6731487" lon="106.1246275"><ele>844.11</ele><time>2026-05-13T19:16:50.000Z</time></trkpt>
        <trkpt lat="28.6730996" lon="106.1247257"><ele>844.26</ele><time>2026-05-13T19:16:58.000Z</time></trkpt>
        <trkpt lat="28.673074" lon="106.1248385"><ele>842.61</ele><time>2026-05-13T19:17:08.000Z</time></trkpt>
        <trkpt lat="28.6730224" lon="106.1249439"><ele>841.44</ele><time>2026-05-13T19:17:20.000Z</time></trkpt>
        <trkpt lat="28.6729444" lon="106.1250149"><ele>839.53</ele><time>2026-05-13T19:17:30.000Z</time></trkpt>
        <trkpt lat="28.6728833" lon="106.1251057"><ele>838.06</ele><time>2026-05-13T19:18:58.000Z</time></trkpt>
        <trkpt lat="28.6728539" lon="106.1252097"><ele>839.39</ele><time>2026-05-13T19:19:08.000Z</time></trkpt>
        <trkpt lat="28.6727831" lon="106.1252817"><ele>841.13</ele><time>2026-05-13T19:19:26.000Z</time></trkpt>
        <trkpt lat="28.6727076" lon="106.1253463"><ele>845</ele><time>2026-05-13T19:19:40.000Z</time></trkpt>
        <trkpt lat="28.67262" lon="106.1253867"><ele>847.93</ele><time>2026-05-13T19:19:50.000Z</time></trkpt>
        <trkpt lat="28.672542" lon="106.1254462"><ele>849.2</ele><time>2026-05-13T19:20:00.000Z</time></trkpt>
        <trkpt lat="28.6724534" lon="106.1254837"><ele>849.37</ele><time>2026-05-13T19:20:18.000Z</time></trkpt>
        <trkpt lat="28.6724497" lon="106.1255275"><ele>847.84</ele><time>2026-05-13T19:20:26.000Z</time></trkpt>
        <trkpt lat="28.6723826" lon="106.1255378"><ele>846.98</ele><time>2026-05-13T19:21:29.000Z</time></trkpt>
        <trkpt lat="28.6724403" lon="106.1254827"><ele>845.02</ele><time>2026-05-13T19:23:05.000Z</time></trkpt>
        <trkpt lat="28.67252" lon="106.1255767"><ele>844.07</ele><time>2026-05-13T19:29:22.000Z</time></trkpt>
        <trkpt lat="28.6725745" lon="106.1256687"><ele>844.63</ele><time>2026-05-13T19:29:32.000Z</time></trkpt>
        <trkpt lat="28.6726443" lon="106.125699"><ele>844.51</ele><time>2026-05-13T19:29:40.000Z</time></trkpt>
        <trkpt lat="28.6727072" lon="106.1257672"><ele>845.24</ele><time>2026-05-13T19:29:54.000Z</time></trkpt>
        <trkpt lat="28.672665" lon="106.125838"><ele>848.18</ele><time>2026-05-13T19:30:52.000Z</time></trkpt>
        <trkpt lat="28.6725707" lon="106.1258624"><ele>858.44</ele><time>2026-05-13T19:31:03.000Z</time></trkpt>
        <trkpt lat="28.6724511" lon="106.1258584"><ele>862.7</ele><time>2026-05-13T19:31:49.000Z</time></trkpt>
        <trkpt lat="28.6723379" lon="106.1258413"><ele>864.8</ele><time>2026-05-13T19:31:59.000Z</time></trkpt>
        <trkpt lat="28.6722244" lon="106.1258451"><ele>865.49</ele><time>2026-05-13T19:32:09.000Z</time></trkpt>
        <trkpt lat="28.6721312" lon="106.125848"><ele>864.15</ele><time>2026-05-13T19:32:19.000Z</time></trkpt>
        <trkpt lat="28.6721774" lon="106.125779"><ele>861.87</ele><time>2026-05-13T19:33:22.000Z</time></trkpt>
        <trkpt lat="28.6722278" lon="106.1256915"><ele>861.95</ele><time>2026-05-13T19:34:14.000Z</time></trkpt>
        <trkpt lat="28.672246" lon="106.1256602"><ele>865.32</ele><time>2026-05-13T19:34:42.000Z</time></trkpt>
        <trkpt lat="28.6722277" lon="106.1255211"><ele>868.01</ele><time>2026-05-13T19:35:22.000Z</time></trkpt>
        <trkpt lat="28.672203" lon="106.1253957"><ele>870.11</ele><time>2026-05-13T19:35:28.000Z</time></trkpt>
        <trkpt lat="28.6721405" lon="106.1253064"><ele>869.89</ele><time>2026-05-13T19:35:36.000Z</time></trkpt>
        <trkpt lat="28.6720941" lon="106.1252643"><ele>870.64</ele><time>2026-05-13T19:35:42.000Z</time></trkpt>
        <trkpt lat="28.6721086" lon="106.1251806"><ele>869.97</ele><time>2026-05-13T19:36:00.000Z</time></trkpt>
        <trkpt lat="28.6721405" lon="106.1250837"><ele>869.69</ele><time>2026-05-13T19:36:12.000Z</time></trkpt>
        <trkpt lat="28.67222" lon="106.1250416"><ele>868.53</ele><time>2026-05-13T19:36:24.000Z</time></trkpt>
        <trkpt lat="28.6723013" lon="106.1249793"><ele>869.13</ele><time>2026-05-13T19:36:44.000Z</time></trkpt>
        <trkpt lat="28.6724008" lon="106.1249329"><ele>869.27</ele><time>2026-05-13T19:36:56.000Z</time></trkpt>
        <trkpt lat="28.6724454" lon="106.124844"><ele>869.26</ele><time>2026-05-13T19:37:02.000Z</time></trkpt>
        <trkpt lat="28.6724345" lon="106.1247308"><ele>867.62</ele><time>2026-05-13T19:37:12.000Z</time></trkpt>
        <trkpt lat="28.6724605" lon="106.1246324"><ele>868.4</ele><time>2026-05-13T19:37:28.000Z</time></trkpt>
        <trkpt lat="28.6724778" lon="106.1245204"><ele>868.7</ele><time>2026-05-13T19:38:30.000Z</time></trkpt>
        <trkpt lat="28.6724671" lon="106.1245059"><ele>873.06</ele><time>2026-05-13T19:39:06.000Z</time></trkpt>
        <trkpt lat="28.6723833" lon="106.12452"><ele>877.91</ele><time>2026-05-13T19:39:24.000Z</time></trkpt>
        <trkpt lat="28.6723492" lon="106.1244413"><ele>883.4</ele><time>2026-05-13T19:40:18.000Z</time></trkpt>
        <trkpt lat="28.6722751" lon="106.1244467"><ele>890.52</ele><time>2026-05-13T19:40:54.000Z</time></trkpt>
        <trkpt lat="28.6722342" lon="106.1243735"><ele>896.31</ele><time>2026-05-13T19:41:16.000Z</time></trkpt>
        <trkpt lat="28.6722217" lon="106.1242647"><ele>900.71</ele><time>2026-05-13T19:41:28.000Z</time></trkpt>
        <trkpt lat="28.6722025" lon="106.1241469"><ele>904.72</ele><time>2026-05-13T19:41:40.000Z</time></trkpt>
        <trkpt lat="28.672146" lon="106.1240528"><ele>905.61</ele><time>2026-05-13T19:41:48.000Z</time></trkpt>
        <trkpt lat="28.6721507" lon="106.123951"><ele>905.66</ele><time>2026-05-13T19:41:58.000Z</time></trkpt>
        <trkpt lat="28.6721241" lon="106.1238395"><ele>906.43</ele><time>2026-05-13T19:42:20.000Z</time></trkpt>
        <trkpt lat="28.6721158" lon="106.1237124"><ele>908.25</ele><time>2026-05-13T19:42:30.000Z</time></trkpt>
        <trkpt lat="28.6721752" lon="106.1236056"><ele>910.24</ele><time>2026-05-13T19:42:42.000Z</time></trkpt>
        <trkpt lat="28.6722616" lon="106.1235414"><ele>910.89</ele><time>2026-05-13T19:42:52.000Z</time></trkpt>
        <trkpt lat="28.6723128" lon="106.1235286"><ele>912.31</ele><time>2026-05-13T19:42:56.000Z</time></trkpt>
        <trkpt lat="28.6723408" lon="106.1234498"><ele>913.68</ele><time>2026-05-13T19:43:45.000Z</time></trkpt>
        <trkpt lat="28.6724005" lon="106.1234155"><ele>913.62</ele><time>2026-05-13T19:43:53.000Z</time></trkpt>
        <trkpt lat="28.6724804" lon="106.1233676"><ele>914.98</ele><time>2026-05-13T19:44:40.000Z</time></trkpt>
        <trkpt lat="28.6725716" lon="106.1232969"><ele>916.09</ele><time>2026-05-13T19:45:42.000Z</time></trkpt>
        <trkpt lat="28.6726333" lon="106.1232221"><ele>920.2</ele><time>2026-05-13T19:46:38.000Z</time></trkpt>
        <trkpt lat="28.6726377" lon="106.1231159"><ele>923.63</ele><time>2026-05-13T19:46:56.000Z</time></trkpt>
        <trkpt lat="28.6727093" lon="106.1230906"><ele>930.23</ele><time>2026-05-13T19:47:14.000Z</time></trkpt>
        <trkpt lat="28.6726711" lon="106.1230339"><ele>934.43</ele><time>2026-05-13T19:47:30.000Z</time></trkpt>
        <trkpt lat="28.6725518" lon="106.1230695"><ele>938.65</ele><time>2026-05-13T19:48:58.000Z</time></trkpt>
        <trkpt lat="28.672475" lon="106.1231277"><ele>945.61</ele><time>2026-05-13T19:49:10.000Z</time></trkpt>
        <trkpt lat="28.6723968" lon="106.1232062"><ele>950.48</ele><time>2026-05-13T19:49:26.000Z</time></trkpt>
        <trkpt lat="28.6723323" lon="106.1232882"><ele>954.34</ele><time>2026-05-13T19:49:34.000Z</time></trkpt>
        <trkpt lat="28.6722604" lon="106.1233708"><ele>955.8</ele><time>2026-05-13T19:49:44.000Z</time></trkpt>
        <trkpt lat="28.6722299" lon="106.1234792"><ele>957.37</ele><time>2026-05-13T19:49:54.000Z</time></trkpt>
        <trkpt lat="28.6721765" lon="106.123551"><ele>957.73</ele><time>2026-05-13T19:50:02.000Z</time></trkpt>
        <trkpt lat="28.6721177" lon="106.1236365"><ele>956.93</ele><time>2026-05-13T19:50:16.000Z</time></trkpt>
        <trkpt lat="28.6720331" lon="106.1236445"><ele>956.33</ele><time>2026-05-13T19:50:30.000Z</time></trkpt>
        <trkpt lat="28.6719564" lon="106.1235828"><ele>955.76</ele><time>2026-05-13T19:50:44.000Z</time></trkpt>
        <trkpt lat="28.6718811" lon="106.1234982"><ele>956.78</ele><time>2026-05-13T19:51:00.000Z</time></trkpt>
        <trkpt lat="28.6718017" lon="106.1234071"><ele>958.03</ele><time>2026-05-13T19:51:16.000Z</time></trkpt>
        <trkpt lat="28.6717146" lon="106.1233383"><ele>959.67</ele><time>2026-05-13T19:51:36.000Z</time></trkpt>
        <trkpt lat="28.6716259" lon="106.1232944"><ele>961.65</ele><time>2026-05-13T19:51:50.000Z</time></trkpt>
        <trkpt lat="28.6715316" lon="106.1232479"><ele>963.48</ele><time>2026-05-13T19:52:02.000Z</time></trkpt>
        <trkpt lat="28.6714625" lon="106.12317"><ele>965.13</ele><time>2026-05-13T19:52:14.000Z</time></trkpt>
        <trkpt lat="28.6713901" lon="106.1231"><ele>966.7</ele><time>2026-05-13T19:52:24.000Z</time></trkpt>
        <trkpt lat="28.6713145" lon="106.1230374"><ele>967.88</ele><time>2026-05-13T19:52:40.000Z</time></trkpt>
        <trkpt lat="28.6712322" lon="106.1229781"><ele>969</ele><time>2026-05-13T19:52:56.000Z</time></trkpt>
        <trkpt lat="28.671162" lon="106.1228972"><ele>971.97</ele><time>2026-05-13T19:53:16.000Z</time></trkpt>
        <trkpt lat="28.671094" lon="106.1228087"><ele>976.57</ele><time>2026-05-13T19:53:32.000Z</time></trkpt>
        <trkpt lat="28.6710188" lon="106.1227461"><ele>978.61</ele><time>2026-05-13T19:53:46.000Z</time></trkpt>
        <trkpt lat="28.6709386" lon="106.1226932"><ele>979.3</ele><time>2026-05-13T19:54:04.000Z</time></trkpt>
        <trkpt lat="28.6708584" lon="106.1226421"><ele>981.42</ele><time>2026-05-13T19:54:18.000Z</time></trkpt>
        <trkpt lat="28.6707822" lon="106.1226011"><ele>982.49</ele><time>2026-05-13T19:54:32.000Z</time></trkpt>
        <trkpt lat="28.6707097" lon="106.1225416"><ele>983.44</ele><time>2026-05-13T19:54:52.000Z</time></trkpt>
        <trkpt lat="28.6706114" lon="106.1225125"><ele>986.85</ele><time>2026-05-13T19:55:22.000Z</time></trkpt>
        <trkpt lat="28.6705807" lon="106.1225344"><ele>989.23</ele><time>2026-05-13T19:55:28.000Z</time></trkpt>
        <trkpt lat="28.670519" lon="106.122481"><ele>990.9</ele><time>2026-05-13T20:04:42.000Z</time></trkpt>
        <trkpt lat="28.6704342" lon="106.1224465"><ele>992.1</ele><time>2026-05-13T20:04:52.000Z</time></trkpt>
        <trkpt lat="28.6703318" lon="106.1224361"><ele>992.59</ele><time>2026-05-13T20:05:02.000Z</time></trkpt>
        <trkpt lat="28.6702391" lon="106.1224573"><ele>992.81</ele><time>2026-05-13T20:05:12.000Z</time></trkpt>
        <trkpt lat="28.6701488" lon="106.1224996"><ele>992.8</ele><time>2026-05-13T20:05:26.000Z</time></trkpt>
        <trkpt lat="28.6700695" lon="106.1225575"><ele>992.81</ele><time>2026-05-13T20:05:40.000Z</time></trkpt>
        <trkpt lat="28.6699884" lon="106.1226059"><ele>993.81</ele><time>2026-05-13T20:05:52.000Z</time></trkpt>
        <trkpt lat="28.6699034" lon="106.1226482"><ele>994.14</ele><time>2026-05-13T20:06:02.000Z</time></trkpt>
        <trkpt lat="28.6698066" lon="106.1226968"><ele>994.37</ele><time>2026-05-13T20:06:16.000Z</time></trkpt>
        <trkpt lat="28.6697053" lon="106.1227424"><ele>994.53</ele><time>2026-05-13T20:06:26.000Z</time></trkpt>
        <trkpt lat="28.6696104" lon="106.1227797"><ele>994.92</ele><time>2026-05-13T20:06:34.000Z</time></trkpt>
        <trkpt lat="28.6695189" lon="106.1228099"><ele>995.63</ele><time>2026-05-13T20:06:44.000Z</time></trkpt>
        <trkpt lat="28.6694716" lon="106.1228225"><ele>996.22</ele><time>2026-05-13T20:06:48.000Z</time></trkpt>
        <trkpt lat="28.6693896" lon="106.1228335"><ele>996.9</ele><time>2026-05-13T20:06:56.000Z</time></trkpt>
        <trkpt lat="28.6693012" lon="106.1228449"><ele>997.56</ele><time>2026-05-13T20:07:04.000Z</time></trkpt>
        <trkpt lat="28.6692054" lon="106.1228619"><ele>997.79</ele><time>2026-05-13T20:07:14.000Z</time></trkpt>
        <trkpt lat="28.6691129" lon="106.1228767"><ele>998.25</ele><time>2026-05-13T20:07:22.000Z</time></trkpt>
        <trkpt lat="28.6690202" lon="106.1228876"><ele>998.62</ele><time>2026-05-13T20:07:34.000Z</time></trkpt>
        <trkpt lat="28.6689294" lon="106.1228847"><ele>999.26</ele><time>2026-05-13T20:07:42.000Z</time></trkpt>
        <trkpt lat="28.668827" lon="106.1228753"><ele>1000.49</ele><time>2026-05-13T20:07:52.000Z</time></trkpt>
        <trkpt lat="28.6687271" lon="106.1228932"><ele>1001.15</ele><time>2026-05-13T20:08:02.000Z</time></trkpt>
        <trkpt lat="28.6686276" lon="106.122905"><ele>1000.98</ele><time>2026-05-13T20:08:12.000Z</time></trkpt>
        <trkpt lat="28.6685267" lon="106.1229106"><ele>1000.66</ele><time>2026-05-13T20:08:22.000Z</time></trkpt>
        <trkpt lat="28.6684306" lon="106.1229053"><ele>1000.27</ele><time>2026-05-13T20:08:34.000Z</time></trkpt>
        <trkpt lat="28.6683408" lon="106.1228866"><ele>1000.09</ele><time>2026-05-13T20:08:42.000Z</time></trkpt>
        <trkpt lat="28.6682456" lon="106.1228659"><ele>999.98</ele><time>2026-05-13T20:08:52.000Z</time></trkpt>
        <trkpt lat="28.6682215" lon="106.122859"><ele>999.25</ele><time>2026-05-13T20:08:54.000Z</time></trkpt>
        <trkpt lat="28.6681496" lon="106.1228127"><ele>998.87</ele><time>2026-05-13T20:09:04.000Z</time></trkpt>
        <trkpt lat="28.6680574" lon="106.1227744"><ele>998.93</ele><time>2026-05-13T20:09:12.000Z</time></trkpt>
        <trkpt lat="28.6679752" lon="106.1227125"><ele>998.93</ele><time>2026-05-13T20:09:22.000Z</time></trkpt>
        <trkpt lat="28.6678785" lon="106.1226593"><ele>998.26</ele><time>2026-05-13T20:09:32.000Z</time></trkpt>
        <trkpt lat="28.6677928" lon="106.1226022"><ele>997.95</ele><time>2026-05-13T20:09:42.000Z</time></trkpt>
        <trkpt lat="28.6676996" lon="106.122558"><ele>997.32</ele><time>2026-05-13T20:09:52.000Z</time></trkpt>
        <trkpt lat="28.6676018" lon="106.1225368"><ele>997.27</ele><time>2026-05-13T20:10:02.000Z</time></trkpt>
        <trkpt lat="28.6675045" lon="106.1225575"><ele>997.15</ele><time>2026-05-13T20:10:12.000Z</time></trkpt>
        <trkpt lat="28.6674054" lon="106.1226134"><ele>997.09</ele><time>2026-05-13T20:10:22.000Z</time></trkpt>
        <trkpt lat="28.6673272" lon="106.1226965"><ele>996.66</ele><time>2026-05-13T20:10:30.000Z</time></trkpt>
        <trkpt lat="28.6672557" lon="106.1227819"><ele>996.42</ele><time>2026-05-13T20:10:40.000Z</time></trkpt>
        <trkpt lat="28.6671843" lon="106.1228632"><ele>994.73</ele><time>2026-05-13T20:10:48.000Z</time></trkpt>
        <trkpt lat="28.6671147" lon="106.1229362"><ele>994.45</ele><time>2026-05-13T20:10:56.000Z</time></trkpt>
        <trkpt lat="28.6670924" lon="106.1230412"><ele>993.87</ele><time>2026-05-13T20:11:08.000Z</time></trkpt>
        <trkpt lat="28.6671329" lon="106.1231398"><ele>993.87</ele><time>2026-05-13T20:11:17.000Z</time></trkpt>
        <trkpt lat="28.667191" lon="106.1232297"><ele>994.85</ele><time>2026-05-13T20:11:26.000Z</time></trkpt>
        <trkpt lat="28.6672698" lon="106.1233187"><ele>995.79</ele><time>2026-05-13T20:11:38.000Z</time></trkpt>
        <trkpt lat="28.6673569" lon="106.1233886"><ele>995.5</ele><time>2026-05-13T20:11:48.000Z</time></trkpt>
        <trkpt lat="28.6674392" lon="106.1234568"><ele>994.88</ele><time>2026-05-13T20:11:58.000Z</time></trkpt>
        <trkpt lat="28.6675125" lon="106.1235287"><ele>995.91</ele><time>2026-05-13T20:12:06.000Z</time></trkpt>
        <trkpt lat="28.6675822" lon="106.1236041"><ele>996.52</ele><time>2026-05-13T20:12:14.000Z</time></trkpt>
        <trkpt lat="28.667664" lon="106.1236668"><ele>996.56</ele><time>2026-05-13T20:12:24.000Z</time></trkpt>
        <trkpt lat="28.6677256" lon="106.1237721"><ele>996.19</ele><time>2026-05-13T20:12:34.000Z</time></trkpt>
        <trkpt lat="28.6677567" lon="106.1238858"><ele>995.3</ele><time>2026-05-13T20:12:44.000Z</time></trkpt>
        <trkpt lat="28.667751" lon="106.1240013"><ele>994.15</ele><time>2026-05-13T20:12:54.000Z</time></trkpt>
        <trkpt lat="28.6677156" lon="106.1241039"><ele>992.79</ele><time>2026-05-13T20:13:04.000Z</time></trkpt>
        <trkpt lat="28.6676806" lon="106.1242153"><ele>990.5</ele><time>2026-05-13T20:13:14.000Z</time></trkpt>
        <trkpt lat="28.6676806" lon="106.1243322"><ele>988.45</ele><time>2026-05-13T20:13:24.000Z</time></trkpt>
        <trkpt lat="28.6677332" lon="106.1244294"><ele>986.25</ele><time>2026-05-13T20:13:34.000Z</time></trkpt>
        <trkpt lat="28.6678235" lon="106.1244682"><ele>985.38</ele><time>2026-05-13T20:13:44.000Z</time></trkpt>
        <trkpt lat="28.6679282" lon="106.1244496"><ele>982.94</ele><time>2026-05-13T20:13:54.000Z</time></trkpt>
        <trkpt lat="28.6680292" lon="106.1243928"><ele>980.71</ele><time>2026-05-13T20:14:06.000Z</time></trkpt>
        <trkpt lat="28.6681214" lon="106.1243369"><ele>979.99</ele><time>2026-05-13T20:14:16.000Z</time></trkpt>
        <trkpt lat="28.6682063" lon="106.1242652"><ele>980.67</ele><time>2026-05-13T20:14:26.000Z</time></trkpt>
        <trkpt lat="28.6682815" lon="106.1241811"><ele>980.9</ele><time>2026-05-13T20:14:36.000Z</time></trkpt>
        <trkpt lat="28.6683344" lon="106.1240766"><ele>980.54</ele><time>2026-05-13T20:14:46.000Z</time></trkpt>
        <trkpt lat="28.6683593" lon="106.1239557"><ele>979.98</ele><time>2026-05-13T20:14:56.000Z</time></trkpt>
        <trkpt lat="28.6683472" lon="106.1238348"><ele>979.58</ele><time>2026-05-13T20:15:06.000Z</time></trkpt>
        <trkpt lat="28.6683169" lon="106.1237163"><ele>980.09</ele><time>2026-05-13T20:15:16.000Z</time></trkpt>
        <trkpt lat="28.6682873" lon="106.1236092"><ele>981.22</ele><time>2026-05-13T20:15:24.000Z</time></trkpt>
        <trkpt lat="28.6682922" lon="106.1235019"><ele>981.36</ele><time>2026-05-13T20:15:32.000Z</time></trkpt>
        <trkpt lat="28.6683447" lon="106.1234222"><ele>981.45</ele><time>2026-05-13T20:15:40.000Z</time></trkpt>
        <trkpt lat="28.6684366" lon="106.1234177"><ele>980.88</ele><time>2026-05-13T20:15:50.000Z</time></trkpt>
        <trkpt lat="28.6685097" lon="106.1234918"><ele>980.54</ele><time>2026-05-13T20:16:02.000Z</time></trkpt>
        <trkpt lat="28.6685864" lon="106.1235888"><ele>979.95</ele><time>2026-05-13T20:16:10.000Z</time></trkpt>
        <trkpt lat="28.6686582" lon="106.1236784"><ele>979.18</ele><time>2026-05-13T20:16:20.000Z</time></trkpt>
        <trkpt lat="28.6687175" lon="106.1237816"><ele>977.93</ele><time>2026-05-13T20:16:30.000Z</time></trkpt>
        <trkpt lat="28.6687873" lon="106.1238753"><ele>975.67</ele><time>2026-05-13T20:16:40.000Z</time></trkpt>
        <trkpt lat="28.6688552" lon="106.1239535"><ele>973.51</ele><time>2026-05-13T20:16:50.000Z</time></trkpt>
        <trkpt lat="28.6689339" lon="106.1240193"><ele>971.35</ele><time>2026-05-13T20:16:58.000Z</time></trkpt>
        <trkpt lat="28.669019" lon="106.1241045"><ele>969.63</ele><time>2026-05-13T20:17:06.000Z</time></trkpt>
        <trkpt lat="28.6691024" lon="106.1241809"><ele>969.12</ele><time>2026-05-13T20:17:14.000Z</time></trkpt>
        <trkpt lat="28.6691936" lon="106.1242391"><ele>969.11</ele><time>2026-05-13T20:17:24.000Z</time></trkpt>
        <trkpt lat="28.6692633" lon="106.1243154"><ele>968.46</ele><time>2026-05-13T20:17:32.000Z</time></trkpt>
        <trkpt lat="28.6693259" lon="106.1244135"><ele>967.62</ele><time>2026-05-13T20:17:40.000Z</time></trkpt>
        <trkpt lat="28.6694109" lon="106.1244824"><ele>967.32</ele><time>2026-05-13T20:17:50.000Z</time></trkpt>
        <trkpt lat="28.6694855" lon="106.1245597"><ele>967.04</ele><time>2026-05-13T20:17:58.000Z</time></trkpt>
        <trkpt lat="28.6695409" lon="106.1246684"><ele>965.7</ele><time>2026-05-13T20:18:06.000Z</time></trkpt>
        <trkpt lat="28.66959" lon="106.1247629"><ele>964.11</ele><time>2026-05-13T20:18:16.000Z</time></trkpt>
        <trkpt lat="28.6696467" lon="106.1248587"><ele>962.84</ele><time>2026-05-13T20:18:24.000Z</time></trkpt>
        <trkpt lat="28.6697143" lon="106.1249414"><ele>961.53</ele><time>2026-05-13T20:18:34.000Z</time></trkpt>
        <trkpt lat="28.6697939" lon="106.1250053"><ele>961.83</ele><time>2026-05-13T20:18:42.000Z</time></trkpt>
        <trkpt lat="28.6698811" lon="106.125071"><ele>961.42</ele><time>2026-05-13T20:18:50.000Z</time></trkpt>
        <trkpt lat="28.6699762" lon="106.125098"><ele>961.17</ele><time>2026-05-13T20:19:00.000Z</time></trkpt>
        <trkpt lat="28.67007" lon="106.1251263"><ele>960.26</ele><time>2026-05-13T20:19:08.000Z</time></trkpt>
        <trkpt lat="28.6701171" lon="106.1251486"><ele>960.25</ele><time>2026-05-13T20:19:12.000Z</time></trkpt>
        <trkpt lat="28.6701913" lon="106.1251767"><ele>960.46</ele><time>2026-05-13T20:19:20.000Z</time></trkpt>
        <trkpt lat="28.6702751" lon="106.1252307"><ele>959.88</ele><time>2026-05-13T20:19:28.000Z</time></trkpt>
        <trkpt lat="28.6703678" lon="106.1252727"><ele>959.33</ele><time>2026-05-13T20:19:33.000Z</time></trkpt>
        <trkpt lat="28.6704554" lon="106.1253288"><ele>959.36</ele><time>2026-05-13T20:19:45.000Z</time></trkpt>
        <trkpt lat="28.6705415" lon="106.1253925"><ele>959.56</ele><time>2026-05-13T20:19:55.000Z</time></trkpt>
        <trkpt lat="28.6706046" lon="106.1254523"><ele>959.45</ele><time>2026-05-13T20:20:01.000Z</time></trkpt>
        <trkpt lat="28.6706892" lon="106.1254705"><ele>959.88</ele><time>2026-05-13T20:20:17.000Z</time></trkpt>
        <trkpt lat="28.6707793" lon="106.1254832"><ele>959.85</ele><time>2026-05-13T20:20:29.000Z</time></trkpt>
        <trkpt lat="28.6708725" lon="106.1255316"><ele>959.66</ele><time>2026-05-13T20:20:37.000Z</time></trkpt>
        <trkpt lat="28.6709049" lon="106.1256234"><ele>959.93</ele><time>2026-05-13T20:20:47.000Z</time></trkpt>
        <trkpt lat="28.6708987" lon="106.1256783"><ele>959.76</ele><time>2026-05-13T20:20:55.000Z</time></trkpt>
        <trkpt lat="28.6709632" lon="106.1257402"><ele>961.17</ele><time>2026-05-13T20:21:17.000Z</time></trkpt>
        <trkpt lat="28.6710366" lon="106.1258118"><ele>962.34</ele><time>2026-05-13T20:21:25.000Z</time></trkpt>
        <trkpt lat="28.6711175" lon="106.1258701"><ele>962.66</ele><time>2026-05-13T20:21:35.000Z</time></trkpt>
        <trkpt lat="28.6712058" lon="106.1259157"><ele>962.29</ele><time>2026-05-13T20:21:43.000Z</time></trkpt>
        <trkpt lat="28.67131" lon="106.125923"><ele>961.66</ele><time>2026-05-13T20:21:53.000Z</time></trkpt>
        <trkpt lat="28.6713649" lon="106.1259067"><ele>960.74</ele><time>2026-05-13T20:21:57.000Z</time></trkpt>
        <trkpt lat="28.671428" lon="106.1259452"><ele>960.35</ele><time>2026-05-13T20:22:21.000Z</time></trkpt>
        <trkpt lat="28.6715101" lon="106.1260075"><ele>959.61</ele><time>2026-05-13T20:22:31.000Z</time></trkpt>
        <trkpt lat="28.6715964" lon="106.1260761"><ele>959.46</ele><time>2026-05-13T20:22:41.000Z</time></trkpt>
        <trkpt lat="28.671687" lon="106.1261383"><ele>959.56</ele><time>2026-05-13T20:22:51.000Z</time></trkpt>
        <trkpt lat="28.6717786" lon="106.1261834"><ele>958.64</ele><time>2026-05-13T20:22:57.000Z</time></trkpt>
        <trkpt lat="28.6718558" lon="106.1262129"><ele>958.89</ele><time>2026-05-13T20:23:07.000Z</time></trkpt>
        <trkpt lat="28.6717598" lon="106.1261791"><ele>960.68</ele><time>2026-05-13T20:24:52.000Z</time></trkpt>
        <trkpt lat="28.671663" lon="106.1262761"><ele>962.08</ele><time>2026-05-13T20:24:56.000Z</time></trkpt>
        <trkpt lat="28.6717123" lon="106.1264719"><ele>963.02</ele><time>2026-05-13T20:25:00.000Z</time></trkpt>
        <trkpt lat="28.6717756" lon="106.126583"><ele>963.33</ele><time>2026-05-13T20:25:02.000Z</time></trkpt>
        <trkpt lat="28.6718429" lon="106.1266666"><ele>963.52</ele><time>2026-05-13T20:25:04.000Z</time></trkpt>
        <trkpt lat="28.6719343" lon="106.1267857"><ele>963.77</ele><time>2026-05-13T20:25:08.000Z</time></trkpt>
        <trkpt lat="28.6720378" lon="106.1269357"><ele>963.98</ele><time>2026-05-13T20:25:12.000Z</time></trkpt>
        <trkpt lat="28.6721104" lon="106.1270875"><ele>964.05</ele><time>2026-05-13T20:25:14.000Z</time></trkpt>
        <trkpt lat="28.6721496" lon="106.1272357"><ele>964.18</ele><time>2026-05-13T20:25:16.000Z</time></trkpt>
        <trkpt lat="28.6721932" lon="106.1273799"><ele>964.27</ele><time>2026-05-13T20:25:18.000Z</time></trkpt>
        <trkpt lat="28.6722665" lon="106.1275165"><ele>964.54</ele><time>2026-05-13T20:25:20.000Z</time></trkpt>
        <trkpt lat="28.6723407" lon="106.1276651"><ele>965.09</ele><time>2026-05-13T20:25:22.000Z</time></trkpt>
        <trkpt lat="28.6724004" lon="106.1278241"><ele>965.77</ele><time>2026-05-13T20:25:24.000Z</time></trkpt>
        <trkpt lat="28.6724247" lon="106.1279861"><ele>966.47</ele><time>2026-05-13T20:25:26.000Z</time></trkpt>
        <trkpt lat="28.6723756" lon="106.128137"><ele>966.86</ele><time>2026-05-13T20:25:28.000Z</time></trkpt>
        <trkpt lat="28.6722463" lon="106.1282495"><ele>967.16</ele><time>2026-05-13T20:25:30.000Z</time></trkpt>
        <trkpt lat="28.6720653" lon="106.1283308"><ele>967.5</ele><time>2026-05-13T20:25:32.000Z</time></trkpt>
        <trkpt lat="28.6718522" lon="106.1284164"><ele>967.9</ele><time>2026-05-13T20:25:34.000Z</time></trkpt>
        <trkpt lat="28.6716154" lon="106.1285117"><ele>968.66</ele><time>2026-05-13T20:25:36.000Z</time></trkpt>
        <trkpt lat="28.6713961" lon="106.1286038"><ele>969.79</ele><time>2026-05-13T20:25:38.000Z</time></trkpt>
        <trkpt lat="28.6711893" lon="106.1286891"><ele>971.13</ele><time>2026-05-13T20:25:40.000Z</time></trkpt>
        <trkpt lat="28.6709999" lon="106.1287792"><ele>972.74</ele><time>2026-05-13T20:25:42.000Z</time></trkpt>
        <trkpt lat="28.6708434" lon="106.1289062"><ele>974.22</ele><time>2026-05-13T20:25:44.000Z</time></trkpt>
        <trkpt lat="28.6707186" lon="106.129089"><ele>975.78</ele><time>2026-05-13T20:25:46.000Z</time></trkpt>
        <trkpt lat="28.6706148" lon="106.1292978"><ele>977.19</ele><time>2026-05-13T20:25:48.000Z</time></trkpt>
        <trkpt lat="28.6705302" lon="106.1295075"><ele>978.77</ele><time>2026-05-13T20:25:50.000Z</time></trkpt>
        <trkpt lat="28.670484" lon="106.1297176"><ele>980.23</ele><time>2026-05-13T20:25:52.000Z</time></trkpt>
        <trkpt lat="28.6705079" lon="106.1299272"><ele>981.32</ele><time>2026-05-13T20:25:54.000Z</time></trkpt>
        <trkpt lat="28.6705709" lon="106.1301404"><ele>982.05</ele><time>2026-05-13T20:25:56.000Z</time></trkpt>
        <trkpt lat="28.6706097" lon="106.130355"><ele>982.3</ele><time>2026-05-13T20:25:58.000Z</time></trkpt>
        <trkpt lat="28.6705902" lon="106.1305679"><ele>982.56</ele><time>2026-05-13T20:26:00.000Z</time></trkpt>
        <trkpt lat="28.6705303" lon="106.130783"><ele>982.75</ele><time>2026-05-13T20:26:02.000Z</time></trkpt>
        <trkpt lat="28.6704672" lon="106.1309933"><ele>982.98</ele><time>2026-05-13T20:26:04.000Z</time></trkpt>
        <trkpt lat="28.6704383" lon="106.1311997"><ele>983.34</ele><time>2026-05-13T20:26:06.000Z</time></trkpt>
        <trkpt lat="28.6704608" lon="106.1314074"><ele>983.73</ele><time>2026-05-13T20:26:08.000Z</time></trkpt>
        <trkpt lat="28.6705168" lon="106.1316212"><ele>984.02</ele><time>2026-05-13T20:26:10.000Z</time></trkpt>
        <trkpt lat="28.670583" lon="106.1318291"><ele>984.48</ele><time>2026-05-13T20:26:12.000Z</time></trkpt>
        <trkpt lat="28.6706057" lon="106.1320331"><ele>984.5</ele><time>2026-05-13T20:26:14.000Z</time></trkpt>
        <trkpt lat="28.6705442" lon="106.1322206"><ele>984.58</ele><time>2026-05-13T20:26:16.000Z</time></trkpt>
        <trkpt lat="28.6704008" lon="106.1323615"><ele>984.79</ele><time>2026-05-13T20:26:18.000Z</time></trkpt>
        <trkpt lat="28.6702239" lon="106.1324767"><ele>985.54</ele><time>2026-05-13T20:26:20.000Z</time></trkpt>
        <trkpt lat="28.6700699" lon="106.1326292"><ele>986.28</ele><time>2026-05-13T20:26:22.000Z</time></trkpt>
        <trkpt lat="28.6699739" lon="106.1328513"><ele>986.8</ele><time>2026-05-13T20:26:24.000Z</time></trkpt>
        <trkpt lat="28.6699416" lon="106.1331149"><ele>987.41</ele><time>2026-05-13T20:26:26.000Z</time></trkpt>
        <trkpt lat="28.669919" lon="106.1333775"><ele>987.91</ele><time>2026-05-13T20:26:28.000Z</time></trkpt>
        <trkpt lat="28.66985" lon="106.1336051"><ele>988.31</ele><time>2026-05-13T20:26:30.000Z</time></trkpt>
        <trkpt lat="28.6696917" lon="106.1337259"><ele>988.71</ele><time>2026-05-13T20:26:32.000Z</time></trkpt>
        <trkpt lat="28.6694849" lon="106.1337809"><ele>989.01</ele><time>2026-05-13T20:26:34.000Z</time></trkpt>
        <trkpt lat="28.6693168" lon="106.1338713"><ele>989.83</ele><time>2026-05-13T20:26:36.000Z</time></trkpt>
        <trkpt lat="28.6692685" lon="106.1340366"><ele>990.13</ele><time>2026-05-13T20:26:38.000Z</time></trkpt>
        <trkpt lat="28.6693402" lon="106.1342341"><ele>990.57</ele><time>2026-05-13T20:26:40.000Z</time></trkpt>
        <trkpt lat="28.6694661" lon="106.1344526"><ele>991.49</ele><time>2026-05-13T20:26:42.000Z</time></trkpt>
        <trkpt lat="28.6696161" lon="106.1346835"><ele>992.21</ele><time>2026-05-13T20:26:44.000Z</time></trkpt>
        <trkpt lat="28.6697787" lon="106.1349144"><ele>993.16</ele><time>2026-05-13T20:26:46.000Z</time></trkpt>
        <trkpt lat="28.6699276" lon="106.1351348"><ele>994.03</ele><time>2026-05-13T20:26:48.000Z</time></trkpt>
        <trkpt lat="28.6700445" lon="106.1353226"><ele>994.92</ele><time>2026-05-13T20:26:50.000Z</time></trkpt>
        <trkpt lat="28.6700967" lon="106.1354776"><ele>995.59</ele><time>2026-05-13T20:26:52.000Z</time></trkpt>
        <trkpt lat="28.6700762" lon="106.1356168"><ele>996.28</ele><time>2026-05-13T20:26:54.000Z</time></trkpt>
        <trkpt lat="28.6700138" lon="106.1357343"><ele>996.65</ele><time>2026-05-13T20:26:56.000Z</time></trkpt>
        <trkpt lat="28.6699199" lon="106.1357977"><ele>996.88</ele><time>2026-05-13T20:26:58.000Z</time></trkpt>
        <trkpt lat="28.6698082" lon="106.1357839"><ele>996.98</ele><time>2026-05-13T20:27:00.000Z</time></trkpt>
        <trkpt lat="28.6696756" lon="106.135718"><ele>997.04</ele><time>2026-05-13T20:27:02.000Z</time></trkpt>
        <trkpt lat="28.6695318" lon="106.1356216"><ele>997.05</ele><time>2026-05-13T20:27:04.000Z</time></trkpt>
        <trkpt lat="28.6694048" lon="106.1354856"><ele>997.13</ele><time>2026-05-13T20:27:06.000Z</time></trkpt>
        <trkpt lat="28.6693113" lon="106.1353007"><ele>997.39</ele><time>2026-05-13T20:27:08.000Z</time></trkpt>
        <trkpt lat="28.66922" lon="106.1350899"><ele>997.49</ele><time>2026-05-13T20:27:10.000Z</time></trkpt>
        <trkpt lat="28.6691173" lon="106.1348696"><ele>997.55</ele><time>2026-05-13T20:27:12.000Z</time></trkpt>
        <trkpt lat="28.6689985" lon="106.1346554"><ele>997.9</ele><time>2026-05-13T20:27:14.000Z</time></trkpt>
        <trkpt lat="28.6688531" lon="106.1344663"><ele>997.97</ele><time>2026-05-13T20:27:16.000Z</time></trkpt>
        <trkpt lat="28.6687011" lon="106.1342986"><ele>997.94</ele><time>2026-05-13T20:27:18.000Z</time></trkpt>
        <trkpt lat="28.6685828" lon="106.1341274"><ele>997.68</ele><time>2026-05-13T20:27:20.000Z</time></trkpt>
        <trkpt lat="28.6685127" lon="106.1339407"><ele>997.1</ele><time>2026-05-13T20:27:22.000Z</time></trkpt>
        <trkpt lat="28.6684131" lon="106.133768"><ele>996.4</ele><time>2026-05-13T20:27:24.000Z</time></trkpt>
        <trkpt lat="28.6682472" lon="106.1336659"><ele>995.96</ele><time>2026-05-13T20:27:26.000Z</time></trkpt>
        <trkpt lat="28.6680759" lon="106.1335541"><ele>994.27</ele><time>2026-05-13T20:27:28.000Z</time></trkpt>
        <trkpt lat="28.6679458" lon="106.1334286"><ele>992.33</ele><time>2026-05-13T20:27:30.000Z</time></trkpt>
        <trkpt lat="28.6678484" lon="106.1332682"><ele>990.1</ele><time>2026-05-13T20:27:32.000Z</time></trkpt>
        <trkpt lat="28.6677509" lon="106.1330613"><ele>988.02</ele><time>2026-05-13T20:27:34.000Z</time></trkpt>
        <trkpt lat="28.6676008" lon="106.1328687"><ele>986.25</ele><time>2026-05-13T20:27:36.000Z</time></trkpt>
        <trkpt lat="28.667453" lon="106.1326835"><ele>984.87</ele><time>2026-05-13T20:27:38.000Z</time></trkpt>
        <trkpt lat="28.6673493" lon="106.1324898"><ele>983.8</ele><time>2026-05-13T20:27:40.000Z</time></trkpt>
        <trkpt lat="28.6672674" lon="106.1322861"><ele>982.45</ele><time>2026-05-13T20:27:42.000Z</time></trkpt>
        <trkpt lat="28.6671883" lon="106.1320694"><ele>980.32</ele><time>2026-05-13T20:27:44.000Z</time></trkpt>
        <trkpt lat="28.6671039" lon="106.1318447"><ele>978.09</ele><time>2026-05-13T20:27:46.000Z</time></trkpt>
        <trkpt lat="28.6669943" lon="106.1316319"><ele>976.68</ele><time>2026-05-13T20:27:48.000Z</time></trkpt>
        <trkpt lat="28.666843" lon="106.1314506"><ele>976.08</ele><time>2026-05-13T20:27:50.000Z</time></trkpt>
        <trkpt lat="28.66667" lon="106.1313159"><ele>975.19</ele><time>2026-05-13T20:27:52.000Z</time></trkpt>
        <trkpt lat="28.6665207" lon="106.1312234"><ele>974.31</ele><time>2026-05-13T20:27:54.000Z</time></trkpt>
        <trkpt lat="28.6663742" lon="106.1311544"><ele>973.93</ele><time>2026-05-13T20:27:56.000Z</time></trkpt>
        <trkpt lat="28.6662448" lon="106.1310943"><ele>973.33</ele><time>2026-05-13T20:27:58.000Z</time></trkpt>
        <trkpt lat="28.666102" lon="106.1310518"><ele>972.75</ele><time>2026-05-13T20:28:02.000Z</time></trkpt>
        <trkpt lat="28.6659921" lon="106.1310595"><ele>971.75</ele><time>2026-05-13T20:28:04.000Z</time></trkpt>
        <trkpt lat="28.6659026" lon="106.1311091"><ele>971.01</ele><time>2026-05-13T20:28:06.000Z</time></trkpt>
        <trkpt lat="28.665814" lon="106.1312001"><ele>970.27</ele><time>2026-05-13T20:28:08.000Z</time></trkpt>
        <trkpt lat="28.665705" lon="106.1313145"><ele>969.46</ele><time>2026-05-13T20:28:10.000Z</time></trkpt>
        <trkpt lat="28.6655627" lon="106.1313993"><ele>968.49</ele><time>2026-05-13T20:28:12.000Z</time></trkpt>
        <trkpt lat="28.665403" lon="106.1314177"><ele>967.28</ele><time>2026-05-13T20:28:14.000Z</time></trkpt>
        <trkpt lat="28.6652453" lon="106.1313922"><ele>965.96</ele><time>2026-05-13T20:28:16.000Z</time></trkpt>
        <trkpt lat="28.6650819" lon="106.1314082"><ele>964.65</ele><time>2026-05-13T20:28:18.000Z</time></trkpt>
        <trkpt lat="28.6649218" lon="106.1314979"><ele>963.13</ele><time>2026-05-13T20:28:20.000Z</time></trkpt>
        <trkpt lat="28.6647752" lon="106.1316242"><ele>961.79</ele><time>2026-05-13T20:28:22.000Z</time></trkpt>
        <trkpt lat="28.664643" lon="106.1317697"><ele>960.68</ele><time>2026-05-13T20:28:24.000Z</time></trkpt>
        <trkpt lat="28.6645275" lon="106.1318943"><ele>960.16</ele><time>2026-05-13T20:28:26.000Z</time></trkpt>
        <trkpt lat="28.664445" lon="106.1320188"><ele>959.63</ele><time>2026-05-13T20:28:28.000Z</time></trkpt>
        <trkpt lat="28.6643881" lon="106.1321416"><ele>959.31</ele><time>2026-05-13T20:28:30.000Z</time></trkpt>
        <trkpt lat="28.6643494" lon="106.1322527"><ele>959.14</ele><time>2026-05-13T20:28:32.000Z</time></trkpt>
        <trkpt lat="28.664319" lon="106.1323866"><ele>959.19</ele><time>2026-05-13T20:28:36.000Z</time></trkpt>
        <trkpt lat="28.6642757" lon="106.1324836"><ele>959.17</ele><time>2026-05-13T20:28:44.000Z</time></trkpt>
        <trkpt lat="28.6643313" lon="106.1324678"><ele>959.47</ele><time>2026-05-13T20:29:20.000Z</time></trkpt>
        <trkpt lat="28.6644224" lon="106.13239"><ele>959.93</ele><time>2026-05-13T20:29:31.000Z</time></trkpt>
        <trkpt lat="28.6645196" lon="106.1323823"><ele>960.99</ele><time>2026-05-13T20:29:39.000Z</time></trkpt>
        <trkpt lat="28.6645886" lon="106.1324642"><ele>961.16</ele><time>2026-05-13T20:29:49.000Z</time></trkpt>
        <trkpt lat="28.6646439" lon="106.1325588"><ele>961.26</ele><time>2026-05-13T20:29:59.000Z</time></trkpt>
        <trkpt lat="28.6646011" lon="106.1325338"><ele>961.55</ele><time>2026-05-13T20:30:31.000Z</time></trkpt>
        <trkpt lat="28.6645444" lon="106.1324446"><ele>961.41</ele><time>2026-05-13T20:30:41.000Z</time></trkpt>
        <trkpt lat="28.6644572" lon="106.1323807"><ele>959.15</ele><time>2026-05-13T20:30:49.000Z</time></trkpt>
        <trkpt lat="28.6644208" lon="106.1322781"><ele>958.37</ele><time>2026-05-13T20:31:11.000Z</time></trkpt>
        <trkpt lat="28.6644475" lon="106.1321586"><ele>957.41</ele><time>2026-05-13T20:31:21.000Z</time></trkpt>
        <trkpt lat="28.6644812" lon="106.1320486"><ele>956.99</ele><time>2026-05-13T20:31:29.000Z</time></trkpt>
        <trkpt lat="28.6645256" lon="106.1319836"><ele>956.28</ele><time>2026-05-13T20:31:39.000Z</time></trkpt>
        <trkpt lat="28.6644929" lon="106.1320322"><ele>955.53</ele><time>2026-05-13T20:32:03.000Z</time></trkpt>
        <trkpt lat="28.6644422" lon="106.1321393"><ele>955.72</ele><time>2026-05-13T20:32:13.000Z</time></trkpt>
        <trkpt lat="28.6644075" lon="106.1322724"><ele>956.16</ele><time>2026-05-13T20:32:21.000Z</time></trkpt>
        <trkpt lat="28.6643637" lon="106.1323836"><ele>956.95</ele><time>2026-05-13T20:32:31.000Z</time></trkpt>
        <trkpt lat="28.6643002" lon="106.1324807"><ele>957.22</ele><time>2026-05-13T20:32:41.000Z</time></trkpt>
        <trkpt lat="28.6642094" lon="106.1325036"><ele>957.93</ele><time>2026-05-13T20:33:10.000Z</time></trkpt>
        <trkpt lat="28.6641015" lon="106.1325309"><ele>960.26</ele><time>2026-05-13T20:33:18.000Z</time></trkpt>
        <trkpt lat="28.6639979" lon="106.1325367"><ele>961.77</ele><time>2026-05-13T20:33:26.000Z</time></trkpt>
        <trkpt lat="28.6638988" lon="106.1325625"><ele>963.19</ele><time>2026-05-13T20:33:32.000Z</time></trkpt>
        <trkpt lat="28.6637984" lon="106.1326027"><ele>964.26</ele><time>2026-05-13T20:33:44.000Z</time></trkpt>
        <trkpt lat="28.6637175" lon="106.1326748"><ele>964.65</ele><time>2026-05-13T20:33:54.000Z</time></trkpt>
        <trkpt lat="28.6636638" lon="106.1327387"><ele>964.32</ele><time>2026-05-13T20:34:00.000Z</time></trkpt>
        <trkpt lat="28.6636203" lon="106.1328281"><ele>964.21</ele><time>2026-05-13T20:34:08.000Z</time></trkpt>
        <trkpt lat="28.6635719" lon="106.1329274"><ele>964.27</ele><time>2026-05-13T20:34:18.000Z</time></trkpt>
        <trkpt lat="28.6635167" lon="106.1330146"><ele>963.67</ele><time>2026-05-13T20:34:26.000Z</time></trkpt>
        <trkpt lat="28.6634458" lon="106.1330842"><ele>963.86</ele><time>2026-05-13T20:34:38.000Z</time></trkpt>
        <trkpt lat="28.6634902" lon="106.1331376"><ele>963.72</ele><time>2026-05-13T20:34:48.000Z</time></trkpt>
        <trkpt lat="28.6634937" lon="106.1331593"><ele>962.68</ele><time>2026-05-13T20:35:03.000Z</time></trkpt>
        <trkpt lat="28.6634255" lon="106.1331564"><ele>962.71</ele><time>2026-05-13T20:35:09.000Z</time></trkpt>
        <trkpt lat="28.6633271" lon="106.1331387"><ele>962.43</ele><time>2026-05-13T20:35:17.000Z</time></trkpt>
        <trkpt lat="28.6632132" lon="106.1330842"><ele>963.88</ele><time>2026-05-13T20:35:25.000Z</time></trkpt>
        <trkpt lat="28.6631016" lon="106.1330196"><ele>965.48</ele><time>2026-05-13T20:35:35.000Z</time></trkpt>
        <trkpt lat="28.6630059" lon="106.1329739"><ele>966.46</ele><time>2026-05-13T20:35:43.000Z</time></trkpt>
        <trkpt lat="28.6629065" lon="106.1329487"><ele>966.82</ele><time>2026-05-13T20:35:51.000Z</time></trkpt>
        <trkpt lat="28.6628126" lon="106.1329448"><ele>967.85</ele><time>2026-05-13T20:35:59.000Z</time></trkpt>
        <trkpt lat="28.662715" lon="106.132938"><ele>968.13</ele><time>2026-05-13T20:36:07.000Z</time></trkpt>
        <trkpt lat="28.6626735" lon="106.1329274"><ele>967.48</ele><time>2026-05-13T20:36:11.000Z</time></trkpt>
        <trkpt lat="28.6625956" lon="106.1329116"><ele>966.38</ele><time>2026-05-13T20:36:21.000Z</time></trkpt>
        <trkpt lat="28.6625057" lon="106.1328935"><ele>966.29</ele><time>2026-05-13T20:36:29.000Z</time></trkpt>
        <trkpt lat="28.6624166" lon="106.1328633"><ele>966.72</ele><time>2026-05-13T20:36:39.000Z</time></trkpt>
        <trkpt lat="28.6623315" lon="106.1329152"><ele>968.57</ele><time>2026-05-13T20:37:18.000Z</time></trkpt>
        <trkpt lat="28.6622566" lon="106.1329915"><ele>971.41</ele><time>2026-05-13T20:37:26.000Z</time></trkpt>
        <trkpt lat="28.662191" lon="106.1330774"><ele>973.12</ele><time>2026-05-13T20:37:36.000Z</time></trkpt>
        <trkpt lat="28.6621442" lon="106.1331826"><ele>973.49</ele><time>2026-05-13T20:37:46.000Z</time></trkpt>
        <trkpt lat="28.6621054" lon="106.1332923"><ele>974.79</ele><time>2026-05-13T20:37:54.000Z</time></trkpt>
        <trkpt lat="28.6620879" lon="106.1334074"><ele>976.14</ele><time>2026-05-13T20:38:02.000Z</time></trkpt>
        <trkpt lat="28.6620592" lon="106.1335161"><ele>976.45</ele><time>2026-05-13T20:38:10.000Z</time></trkpt>
        <trkpt lat="28.662022" lon="106.1336265"><ele>977.58</ele><time>2026-05-13T20:38:18.000Z</time></trkpt>
        <trkpt lat="28.6620304" lon="106.1337321"><ele>974.66</ele><time>2026-05-13T20:38:26.000Z</time></trkpt>
        <trkpt lat="28.6619941" lon="106.1338233"><ele>973.15</ele><time>2026-05-13T20:38:38.000Z</time></trkpt>
        <trkpt lat="28.6619772" lon="106.1339365"><ele>973.23</ele><time>2026-05-13T20:38:46.000Z</time></trkpt>
        <trkpt lat="28.661971" lon="106.1340658"><ele>972.07</ele><time>2026-05-13T20:38:54.000Z</time></trkpt>
        <trkpt lat="28.6619296" lon="106.134169"><ele>971.49</ele><time>2026-05-13T20:39:04.000Z</time></trkpt>
        <trkpt lat="28.6618722" lon="106.1342631"><ele>972.26</ele><time>2026-05-13T20:39:12.000Z</time></trkpt>
        <trkpt lat="28.6618982" lon="106.1343728"><ele>972.75</ele><time>2026-05-13T20:39:20.000Z</time></trkpt>
        <trkpt lat="28.6618513" lon="106.1344429"><ele>973.03</ele><time>2026-05-13T20:39:32.000Z</time></trkpt>
        <trkpt lat="28.6618568" lon="106.1345365"><ele>971.88</ele><time>2026-05-13T20:39:40.000Z</time></trkpt>
        <trkpt lat="28.6618716" lon="106.1346427"><ele>970.33</ele><time>2026-05-13T20:39:46.000Z</time></trkpt>
        <trkpt lat="28.6618497" lon="106.1347456"><ele>968.89</ele><time>2026-05-13T20:39:54.000Z</time></trkpt>
        <trkpt lat="28.661772" lon="106.1347867"><ele>970.08</ele><time>2026-05-13T20:40:02.000Z</time></trkpt>
        <trkpt lat="28.6616683" lon="106.13479"><ele>970.06</ele><time>2026-05-13T20:40:10.000Z</time></trkpt>
        <trkpt lat="28.6615809" lon="106.1348707"><ele>970.61</ele><time>2026-05-13T20:40:18.000Z</time></trkpt>
        <trkpt lat="28.6615609" lon="106.1349599"><ele>971.4</ele><time>2026-05-13T20:40:24.000Z</time></trkpt>
        <trkpt lat="28.6615969" lon="106.1350638"><ele>970.67</ele><time>2026-05-13T20:40:40.000Z</time></trkpt>
        <trkpt lat="28.661628" lon="106.1351893"><ele>966.78</ele><time>2026-05-13T20:40:56.000Z</time></trkpt>
        <trkpt lat="28.6616833" lon="106.1353069"><ele>964.71</ele><time>2026-05-13T20:41:04.000Z</time></trkpt>
        <trkpt lat="28.6617088" lon="106.1354297"><ele>963.31</ele><time>2026-05-13T20:41:12.000Z</time></trkpt>
        <trkpt lat="28.6617052" lon="106.1355462"><ele>960.4</ele><time>2026-05-13T20:41:20.000Z</time></trkpt>
        <trkpt lat="28.661677" lon="106.1356616"><ele>960.88</ele><time>2026-05-13T20:41:28.000Z</time></trkpt>
        <trkpt lat="28.6616227" lon="106.1357502"><ele>961.83</ele><time>2026-05-13T20:41:34.000Z</time></trkpt>
        <trkpt lat="28.6615678" lon="106.1358497"><ele>961.27</ele><time>2026-05-13T20:41:44.000Z</time></trkpt>
        <trkpt lat="28.6614985" lon="106.135935"><ele>962.1</ele><time>2026-05-13T20:42:10.000Z</time></trkpt>
        <trkpt lat="28.6614666" lon="106.1360305"><ele>961.99</ele><time>2026-05-13T20:42:20.000Z</time></trkpt>
        <trkpt lat="28.6614337" lon="106.1361404"><ele>961.33</ele><time>2026-05-13T20:42:30.000Z</time></trkpt>
        <trkpt lat="28.6613726" lon="106.136228"><ele>960.47</ele><time>2026-05-13T20:42:40.000Z</time></trkpt>
        <trkpt lat="28.6613015" lon="106.1362993"><ele>958.69</ele><time>2026-05-13T20:42:50.000Z</time></trkpt>
        <trkpt lat="28.661214" lon="106.1363688"><ele>956.26</ele><time>2026-05-13T20:43:00.000Z</time></trkpt>
        <trkpt lat="28.6611408" lon="106.1364471"><ele>954.28</ele><time>2026-05-13T20:43:10.000Z</time></trkpt>
        <trkpt lat="28.6611035" lon="106.136558"><ele>950.87</ele><time>2026-05-13T20:43:18.000Z</time></trkpt>
        <trkpt lat="28.6611192" lon="106.136608"><ele>947.82</ele><time>2026-05-13T20:43:24.000Z</time></trkpt>
        <trkpt lat="28.6610596" lon="106.1366456"><ele>945.09</ele><time>2026-05-13T20:43:38.000Z</time></trkpt>
        <trkpt lat="28.6609908" lon="106.136713"><ele>941.5</ele><time>2026-05-13T20:43:46.000Z</time></trkpt>
        <trkpt lat="28.6609133" lon="106.1367962"><ele>939.51</ele><time>2026-05-13T20:43:56.000Z</time></trkpt>
        <trkpt lat="28.6608477" lon="106.1368848"><ele>938.21</ele><time>2026-05-13T20:44:04.000Z</time></trkpt>
        <trkpt lat="28.6607784" lon="106.1369767"><ele>937.39</ele><time>2026-05-13T20:44:14.000Z</time></trkpt>
        <trkpt lat="28.6607171" lon="106.1370822"><ele>937.43</ele><time>2026-05-13T20:44:26.000Z</time></trkpt>
        <trkpt lat="28.6606563" lon="106.1371718"><ele>934.6</ele><time>2026-05-13T20:44:36.000Z</time></trkpt>
        <trkpt lat="28.6605547" lon="106.1371695"><ele>930.86</ele><time>2026-05-13T20:44:42.000Z</time></trkpt>
        <trkpt lat="28.6604765" lon="106.1371268"><ele>927.88</ele><time>2026-05-13T20:44:46.000Z</time></trkpt>
        <trkpt lat="28.6603881" lon="106.1371383"><ele>926.02</ele><time>2026-05-13T20:45:02.000Z</time></trkpt>
        <trkpt lat="28.6603149" lon="106.137194"><ele>926.06</ele><time>2026-05-13T20:45:12.000Z</time></trkpt>
        <trkpt lat="28.6602302" lon="106.1372477"><ele>925.19</ele><time>2026-05-13T20:45:30.000Z</time></trkpt>
        <trkpt lat="28.6601419" lon="106.1372483"><ele>923.36</ele><time>2026-05-13T20:45:48.000Z</time></trkpt>
        <trkpt lat="28.6600493" lon="106.1372524"><ele>920.38</ele><time>2026-05-13T20:46:02.000Z</time></trkpt>
        <trkpt lat="28.6599534" lon="106.1372896"><ele>918.7</ele><time>2026-05-13T20:46:12.000Z</time></trkpt>
        <trkpt lat="28.6598623" lon="106.1373408"><ele>918.36</ele><time>2026-05-13T20:46:24.000Z</time></trkpt>
        <trkpt lat="28.6597709" lon="106.1373924"><ele>918.75</ele><time>2026-05-13T20:46:36.000Z</time></trkpt>
        <trkpt lat="28.6596805" lon="106.1374319"><ele>919.18</ele><time>2026-05-13T20:46:48.000Z</time></trkpt>
        <trkpt lat="28.6595856" lon="106.1374639"><ele>918.86</ele><time>2026-05-13T20:46:58.000Z</time></trkpt>
        <trkpt lat="28.6595365" lon="106.1375434"><ele>918.01</ele><time>2026-05-13T20:47:30.000Z</time></trkpt>
        <trkpt lat="28.6594872" lon="106.1376296"><ele>915.46</ele><time>2026-05-13T20:47:42.000Z</time></trkpt>
        <trkpt lat="28.6595287" lon="106.1377405"><ele>912.33</ele><time>2026-05-13T20:47:56.000Z</time></trkpt>
        <trkpt lat="28.6596004" lon="106.1378349"><ele>908.37</ele><time>2026-05-13T20:48:04.000Z</time></trkpt>
        <trkpt lat="28.6595902" lon="106.1379244"><ele>904.39</ele><time>2026-05-13T20:48:22.000Z</time></trkpt>
        <trkpt lat="28.659557" lon="106.1380173"><ele>901.02</ele><time>2026-05-13T20:48:52.000Z</time></trkpt>
        <trkpt lat="28.6596451" lon="106.1379917"><ele>898.66</ele><time>2026-05-13T20:50:26.000Z</time></trkpt>
        <trkpt lat="28.6597604" lon="106.1380146"><ele>892.17</ele><time>2026-05-13T20:51:13.000Z</time></trkpt>
        <trkpt lat="28.6598788" lon="106.138013"><ele>887.74</ele><time>2026-05-13T20:51:17.000Z</time></trkpt>
        <trkpt lat="28.659977" lon="106.1379757"><ele>887.66</ele><time>2026-05-13T20:51:25.000Z</time></trkpt>
        <trkpt lat="28.6600613" lon="106.1379214"><ele>887.4</ele><time>2026-05-13T20:51:54.000Z</time></trkpt>
        <trkpt lat="28.6601465" lon="106.1379297"><ele>885.55</ele><time>2026-05-13T20:52:04.000Z</time></trkpt>
        <trkpt lat="28.6602254" lon="106.1379788"><ele>883.74</ele><time>2026-05-13T20:52:16.000Z</time></trkpt>
        <trkpt lat="28.6602535" lon="106.1380092"><ele>882.03</ele><time>2026-05-13T20:52:18.000Z</time></trkpt>
        <trkpt lat="28.6603184" lon="106.1380714"><ele>881.16</ele><time>2026-05-13T20:52:30.000Z</time></trkpt>
        <trkpt lat="28.6604213" lon="106.1380772"><ele>881.47</ele><time>2026-05-13T20:52:36.000Z</time></trkpt>
        <trkpt lat="28.6605202" lon="106.13806"><ele>881.56</ele><time>2026-05-13T20:52:54.000Z</time></trkpt>
        <trkpt lat="28.6606276" lon="106.13804"><ele>882.18</ele><time>2026-05-13T20:53:10.000Z</time></trkpt>
        <trkpt lat="28.6607058" lon="106.137956"><ele>884.22</ele><time>2026-05-13T20:53:16.000Z</time></trkpt>
        <trkpt lat="28.660741" lon="106.1378342"><ele>883.86</ele><time>2026-05-13T20:53:22.000Z</time></trkpt>
        <trkpt lat="28.660827" lon="106.1377835"><ele>884.76</ele><time>2026-05-13T20:53:32.000Z</time></trkpt>
        <trkpt lat="28.6608931" lon="106.1378378"><ele>884.92</ele><time>2026-05-13T20:53:38.000Z</time></trkpt>
        <trkpt lat="28.6609323" lon="106.1379458"><ele>883.27</ele><time>2026-05-13T20:53:44.000Z</time></trkpt>
        <trkpt lat="28.6609726" lon="106.13806"><ele>882.22</ele><time>2026-05-13T20:53:54.000Z</time></trkpt>
        <trkpt lat="28.6609579" lon="106.1381709"><ele>882.95</ele><time>2026-05-13T20:54:26.000Z</time></trkpt>
        <trkpt lat="28.6609857" lon="106.1381342"><ele>883.82</ele><time>2026-05-13T20:55:20.000Z</time></trkpt>
        <trkpt lat="28.6610128" lon="106.1380768"><ele>883.19</ele><time>2026-05-13T20:55:28.000Z</time></trkpt>
        <trkpt lat="28.6610449" lon="106.137971"><ele>881.79</ele><time>2026-05-13T20:55:52.000Z</time></trkpt>
        <trkpt lat="28.6611177" lon="106.1378908"><ele>881.89</ele><time>2026-05-13T20:56:04.000Z</time></trkpt>
        <trkpt lat="28.6611894" lon="106.1378076"><ele>881.87</ele><time>2026-05-13T20:56:16.000Z</time></trkpt>
        <trkpt lat="28.661205" lon="106.1377059"><ele>880.58</ele><time>2026-05-13T20:56:30.000Z</time></trkpt>
        <trkpt lat="28.6611804" lon="106.1376022"><ele>878.71</ele><time>2026-05-13T20:56:40.000Z</time></trkpt>
        <trkpt lat="28.6611448" lon="106.1374906"><ele>877.2</ele><time>2026-05-13T20:56:52.000Z</time></trkpt>
        <trkpt lat="28.6611737" lon="106.1373794"><ele>874.59</ele><time>2026-05-13T20:57:02.000Z</time></trkpt>
        <trkpt lat="28.6612119" lon="106.1372758"><ele>873.74</ele><time>2026-05-13T20:57:14.000Z</time></trkpt>
        <trkpt lat="28.6611978" lon="106.137178"><ele>872.49</ele><time>2026-05-13T20:57:20.000Z</time></trkpt>
        <trkpt lat="28.6611679" lon="106.1370708"><ele>872.38</ele><time>2026-05-13T20:57:28.000Z</time></trkpt>
        <trkpt lat="28.6612015" lon="106.1369749"><ele>872.44</ele><time>2026-05-13T20:57:38.000Z</time></trkpt>
        <trkpt lat="28.6612839" lon="106.1369081"><ele>874.34</ele><time>2026-05-13T20:57:50.000Z</time></trkpt>
        <trkpt lat="28.6613862" lon="106.1368924"><ele>874.95</ele><time>2026-05-13T20:57:58.000Z</time></trkpt>
        <trkpt lat="28.661486" lon="106.136895"><ele>876.33</ele><time>2026-05-13T20:58:06.000Z</time></trkpt>
        <trkpt lat="28.6615879" lon="106.1368706"><ele>876.57</ele><time>2026-05-13T20:58:16.000Z</time></trkpt>
        <trkpt lat="28.6616943" lon="106.1368647"><ele>876.49</ele><time>2026-05-13T20:58:28.000Z</time></trkpt>
        <trkpt lat="28.6617963" lon="106.1368783"><ele>874.85</ele><time>2026-05-13T20:58:40.000Z</time></trkpt>
        <trkpt lat="28.6618883" lon="106.1369164"><ele>874.86</ele><time>2026-05-13T20:58:46.000Z</time></trkpt>
        <trkpt lat="28.6619744" lon="106.1369591"><ele>876.1</ele><time>2026-05-13T20:58:52.000Z</time></trkpt>
        <trkpt lat="28.6620095" lon="106.1370227"><ele>876.29</ele><time>2026-05-13T20:59:00.000Z</time></trkpt>
        <trkpt lat="28.6620722" lon="106.1370995"><ele>876.38</ele><time>2026-05-13T20:59:08.000Z</time></trkpt>
        <trkpt lat="28.6621359" lon="106.1371806"><ele>877.29</ele><time>2026-05-13T20:59:18.000Z</time></trkpt>
        <trkpt lat="28.6622202" lon="106.1372105"><ele>879.35</ele><time>2026-05-13T20:59:28.000Z</time></trkpt>
        <trkpt lat="28.66232" lon="106.1372218"><ele>880.52</ele><time>2026-05-13T20:59:40.000Z</time></trkpt>
        <trkpt lat="28.6624114" lon="106.1371895"><ele>879.28</ele><time>2026-05-13T20:59:52.000Z</time></trkpt>
        <trkpt lat="28.6624555" lon="106.1370996"><ele>878.09</ele><time>2026-05-13T21:00:12.000Z</time></trkpt>
        <trkpt lat="28.6625392" lon="106.1371008"><ele>879.85</ele><time>2026-05-13T21:00:18.000Z</time></trkpt>
        <trkpt lat="28.6625886" lon="106.1371405"><ele>880.24</ele><time>2026-05-13T21:00:20.000Z</time></trkpt>
        <trkpt lat="28.6626481" lon="106.137243"><ele>881.41</ele><time>2026-05-13T21:00:28.000Z</time></trkpt>
        <trkpt lat="28.6626706" lon="106.1373734"><ele>884.24</ele><time>2026-05-13T21:00:34.000Z</time></trkpt>
        <trkpt lat="28.6627158" lon="106.1374774"><ele>886.91</ele><time>2026-05-13T21:00:46.000Z</time></trkpt>
        <trkpt lat="28.6627965" lon="106.1375558"><ele>886.33</ele><time>2026-05-13T21:00:54.000Z</time></trkpt>
        <trkpt lat="28.6628854" lon="106.1375137"><ele>885.21</ele><time>2026-05-13T21:01:04.000Z</time></trkpt>
        <trkpt lat="28.6628769" lon="106.1374105"><ele>882.05</ele><time>2026-05-13T21:01:12.000Z</time></trkpt>
        <trkpt lat="28.6628132" lon="106.1373195"><ele>878.27</ele><time>2026-05-13T21:01:18.000Z</time></trkpt>
        <trkpt lat="28.6627681" lon="106.1372151"><ele>875.32</ele><time>2026-05-13T21:01:26.000Z</time></trkpt>
        <trkpt lat="28.6627923" lon="106.1371164"><ele>873.62</ele><time>2026-05-13T21:01:34.000Z</time></trkpt>
        <trkpt lat="28.6628559" lon="106.13704"><ele>873.15</ele><time>2026-05-13T21:01:40.000Z</time></trkpt>
        <trkpt lat="28.6629409" lon="106.1369872"><ele>873.08</ele><time>2026-05-13T21:01:46.000Z</time></trkpt>
        <trkpt lat="28.6630339" lon="106.1369443"><ele>873.56</ele><time>2026-05-13T21:01:54.000Z</time></trkpt>
        <trkpt lat="28.6630192" lon="106.1368668"><ele>872.68</ele><time>2026-05-13T21:02:10.000Z</time></trkpt>
        <trkpt lat="28.6630399" lon="106.1367536"><ele>871.81</ele><time>2026-05-13T21:02:20.000Z</time></trkpt>
        <trkpt lat="28.6630303" lon="106.1366362"><ele>871.32</ele><time>2026-05-13T21:02:30.000Z</time></trkpt>
        <trkpt lat="28.6629958" lon="106.1365226"><ele>871.51</ele><time>2026-05-13T21:02:40.000Z</time></trkpt>
        <trkpt lat="28.6630002" lon="106.1364006"><ele>870.52</ele><time>2026-05-13T21:02:50.000Z</time></trkpt>
        <trkpt lat="28.6630407" lon="106.1362899"><ele>871.13</ele><time>2026-05-13T21:03:00.000Z</time></trkpt>
        <trkpt lat="28.6631307" lon="106.1362664"><ele>872.7</ele><time>2026-05-13T21:03:34.000Z</time></trkpt>
        <trkpt lat="28.6632152" lon="106.1362198"><ele>875.34</ele><time>2026-05-13T21:04:34.000Z</time></trkpt>
        <trkpt lat="28.6631791" lon="106.136177"><ele>874.93</ele><time>2026-05-13T21:04:48.000Z</time></trkpt>
        <trkpt lat="28.6631464" lon="106.1361739"><ele>875.09</ele><time>2026-05-13T21:04:52.000Z</time></trkpt>
        <trkpt lat="28.6631871" lon="106.1362353"><ele>874.88</ele><time>2026-05-13T21:05:48.000Z</time></trkpt>
        <trkpt lat="28.6631951" lon="106.1362523"><ele>880.13</ele><time>2026-05-13T21:06:38.000Z</time></trkpt>
        <trkpt lat="28.6632853" lon="106.1362475"><ele>882.52</ele><time>2026-05-13T21:07:12.000Z</time></trkpt>
        <trkpt lat="28.6633936" lon="106.1362377"><ele>883.91</ele><time>2026-05-13T21:07:18.000Z</time></trkpt>
        <trkpt lat="28.6635028" lon="106.1362316"><ele>884.34</ele><time>2026-05-13T21:07:26.000Z</time></trkpt>
        <trkpt lat="28.6635588" lon="106.1361813"><ele>882.92</ele><time>2026-05-13T21:07:34.000Z</time></trkpt>
        <trkpt lat="28.6635986" lon="106.1360928"><ele>880.67</ele><time>2026-05-13T21:07:48.000Z</time></trkpt>
        <trkpt lat="28.6636202" lon="106.1359763"><ele>877.87</ele><time>2026-05-13T21:07:58.000Z</time></trkpt>
        <trkpt lat="28.663606" lon="106.1358574"><ele>875.92</ele><time>2026-05-13T21:08:08.000Z</time></trkpt>
        <trkpt lat="28.6636265" lon="106.1357527"><ele>874.1</ele><time>2026-05-13T21:08:18.000Z</time></trkpt>
        <trkpt lat="28.6636911" lon="106.1356787"><ele>874.57</ele><time>2026-05-13T21:08:26.000Z</time></trkpt>
        <trkpt lat="28.6638024" lon="106.1356444"><ele>875.73</ele><time>2026-05-13T21:08:34.000Z</time></trkpt>
        <trkpt lat="28.6639184" lon="106.1356183"><ele>877.62</ele><time>2026-05-13T21:08:42.000Z</time></trkpt>
        <trkpt lat="28.6640005" lon="106.1355558"><ele>877.95</ele><time>2026-05-13T21:08:56.000Z</time></trkpt>
        <trkpt lat="28.6640264" lon="106.1354609"><ele>877.96</ele><time>2026-05-13T21:09:08.000Z</time></trkpt>
        <trkpt lat="28.6640674" lon="106.1353582"><ele>877.29</ele><time>2026-05-13T21:09:16.000Z</time></trkpt>
        <trkpt lat="28.6641171" lon="106.135263"><ele>875.59</ele><time>2026-05-13T21:09:24.000Z</time></trkpt>
        <trkpt lat="28.6641756" lon="106.1351822"><ele>874.51</ele><time>2026-05-13T21:09:34.000Z</time></trkpt>
        <trkpt lat="28.6642398" lon="106.1350837"><ele>874.42</ele><time>2026-05-13T21:09:46.000Z</time></trkpt>
        <trkpt lat="28.6642787" lon="106.1349827"><ele>873.22</ele><time>2026-05-13T21:09:54.000Z</time></trkpt>
        <trkpt lat="28.6642854" lon="106.1348777"><ele>873.83</ele><time>2026-05-13T21:10:04.000Z</time></trkpt>
        <trkpt lat="28.6642705" lon="106.1347712"><ele>873.51</ele><time>2026-05-13T21:10:16.000Z</time></trkpt>
        <trkpt lat="28.664318" lon="106.1346892"><ele>873.65</ele><time>2026-05-13T21:10:26.000Z</time></trkpt>
        <trkpt lat="28.6644103" lon="106.1346467"><ele>874.5</ele><time>2026-05-13T21:10:42.000Z</time></trkpt>
        <trkpt lat="28.6645143" lon="106.1346133"><ele>876.34</ele><time>2026-05-13T21:10:50.000Z</time></trkpt>
        <trkpt lat="28.6646058" lon="106.1345718"><ele>878.43</ele><time>2026-05-13T21:10:58.000Z</time></trkpt>
        <trkpt lat="28.6646765" lon="106.1344914"><ele>879.27</ele><time>2026-05-13T21:11:14.000Z</time></trkpt>
        <trkpt lat="28.664753" lon="106.1344218"><ele>877.59</ele><time>2026-05-13T21:11:22.000Z</time></trkpt>
        <trkpt lat="28.6648141" lon="106.1343427"><ele>877.46</ele><time>2026-05-13T21:11:32.000Z</time></trkpt>
        <trkpt lat="28.6648055" lon="106.1342468"><ele>876.1</ele><time>2026-05-13T21:11:44.000Z</time></trkpt>
        <trkpt lat="28.6648196" lon="106.1341468"><ele>875.24</ele><time>2026-05-13T21:11:54.000Z</time></trkpt>
        <trkpt lat="28.6648828" lon="106.1340726"><ele>873.71</ele><time>2026-05-13T21:12:04.000Z</time></trkpt>
        <trkpt lat="28.6649157" lon="106.1339745"><ele>871.94</ele><time>2026-05-13T21:12:18.000Z</time></trkpt>
        <trkpt lat="28.6649622" lon="106.1338758"><ele>871.1</ele><time>2026-05-13T21:12:32.000Z</time></trkpt>
        <trkpt lat="28.6650098" lon="106.1337816"><ele>872.89</ele><time>2026-05-13T21:12:44.000Z</time></trkpt>
        <trkpt lat="28.6650536" lon="106.1336897"><ele>874.04</ele><time>2026-05-13T21:13:14.000Z</time></trkpt>
        <trkpt lat="28.6650724" lon="106.1335896"><ele>876.4</ele><time>2026-05-13T21:13:32.000Z</time></trkpt>
        <trkpt lat="28.6650872" lon="106.1334867"><ele>878</ele><time>2026-05-13T21:13:44.000Z</time></trkpt>
        <trkpt lat="28.6651263" lon="106.1333949"><ele>879.23</ele><time>2026-05-13T21:14:02.000Z</time></trkpt>
        <trkpt lat="28.6651937" lon="106.1333276"><ele>882.2</ele><time>2026-05-13T21:14:12.000Z</time></trkpt>
        <trkpt lat="28.665258" lon="106.1332365"><ele>884.82</ele><time>2026-05-13T21:14:28.000Z</time></trkpt>
        <trkpt lat="28.6652787" lon="106.133167"><ele>889.17</ele><time>2026-05-13T21:14:38.000Z</time></trkpt>
        <trkpt lat="28.6653008" lon="106.1330714"><ele>891.58</ele><time>2026-05-13T21:14:54.000Z</time></trkpt>
        <trkpt lat="28.6653188" lon="106.132962"><ele>894.85</ele><time>2026-05-13T21:15:14.000Z</time></trkpt>
        <trkpt lat="28.6653227" lon="106.1328515"><ele>897.67</ele><time>2026-05-13T21:15:26.000Z</time></trkpt>
        <trkpt lat="28.6653274" lon="106.1327324"><ele>900.6</ele><time>2026-05-13T21:15:40.000Z</time></trkpt>
        <trkpt lat="28.6653301" lon="106.1326239"><ele>900.35</ele><time>2026-05-13T21:15:52.000Z</time></trkpt>
        <trkpt lat="28.6653646" lon="106.1325243"><ele>899.56</ele><time>2026-05-13T21:16:10.000Z</time></trkpt>
        <trkpt lat="28.6654069" lon="106.1324224"><ele>900.69</ele><time>2026-05-13T21:16:24.000Z</time></trkpt>
        <trkpt lat="28.6654222" lon="106.1323888"><ele>901.03</ele><time>2026-05-13T21:16:26.000Z</time></trkpt>
        <trkpt lat="28.665479" lon="106.1323318"><ele>900.79</ele><time>2026-05-13T21:16:44.000Z</time></trkpt>
        <trkpt lat="28.6655825" lon="106.1323341"><ele>901.18</ele><time>2026-05-13T21:18:02.000Z</time></trkpt>
        <trkpt lat="28.6656627" lon="106.1322751"><ele>904.36</ele><time>2026-05-13T21:18:16.000Z</time></trkpt>
        <trkpt lat="28.6657154" lon="106.1321867"><ele>907.38</ele><time>2026-05-13T21:18:30.000Z</time></trkpt>
        <trkpt lat="28.665763" lon="106.1320958"><ele>911.38</ele><time>2026-05-13T21:18:44.000Z</time></trkpt>
        <trkpt lat="28.6658013" lon="106.1319998"><ele>915.32</ele><time>2026-05-13T21:19:00.000Z</time></trkpt>
        <trkpt lat="28.6658526" lon="106.1319109"><ele>917.82</ele><time>2026-05-13T21:19:20.000Z</time></trkpt>
        <trkpt lat="28.665907" lon="106.1318168"><ele>919.78</ele><time>2026-05-13T21:19:36.000Z</time></trkpt>
        <trkpt lat="28.6659752" lon="106.1317463"><ele>920.84</ele><time>2026-05-13T21:19:52.000Z</time></trkpt>
        <trkpt lat="28.6660613" lon="106.1316955"><ele>922.26</ele><time>2026-05-13T21:20:12.000Z</time></trkpt>
        <trkpt lat="28.6661298" lon="106.1317516"><ele>925.48</ele><time>2026-05-13T21:20:44.000Z</time></trkpt>
        <trkpt lat="28.6662217" lon="106.1317848"><ele>930.38</ele><time>2026-05-13T21:21:22.000Z</time></trkpt>
        <trkpt lat="28.6663139" lon="106.1317774"><ele>934.66</ele><time>2026-05-13T21:21:44.000Z</time></trkpt>
        <trkpt lat="28.6663957" lon="106.1317243"><ele>938.01</ele><time>2026-05-13T21:22:00.000Z</time></trkpt>
        <trkpt lat="28.6664758" lon="106.1316607"><ele>941.18</ele><time>2026-05-13T21:22:18.000Z</time></trkpt>
        <trkpt lat="28.6665639" lon="106.1316131"><ele>945.06</ele><time>2026-05-13T21:23:00.000Z</time></trkpt>
        <trkpt lat="28.6666535" lon="106.1315842"><ele>947.79</ele><time>2026-05-13T21:23:20.000Z</time></trkpt>
        <trkpt lat="28.6667541" lon="106.1315769"><ele>950.5</ele><time>2026-05-13T21:23:34.000Z</time></trkpt>
        <trkpt lat="28.6668519" lon="106.1315774"><ele>952.8</ele><time>2026-05-13T21:23:46.000Z</time></trkpt>
        <trkpt lat="28.6668457" lon="106.1314983"><ele>955.69</ele><time>2026-05-13T21:24:06.000Z</time></trkpt>
        <trkpt lat="28.6667644" lon="106.1314197"><ele>958.97</ele><time>2026-05-13T21:24:18.000Z</time></trkpt>
        <trkpt lat="28.6666575" lon="106.131356"><ele>961.49</ele><time>2026-05-13T21:24:28.000Z</time></trkpt>
        <trkpt lat="28.6665626" lon="106.1312863"><ele>963.61</ele><time>2026-05-13T21:24:40.000Z</time></trkpt>
        <trkpt lat="28.6664733" lon="106.1312193"><ele>964.05</ele><time>2026-05-13T21:24:48.000Z</time></trkpt>
        <trkpt lat="28.6663896" lon="106.1311615"><ele>963.82</ele><time>2026-05-13T21:24:56.000Z</time></trkpt>
        <trkpt lat="28.6663052" lon="106.1311203"><ele>964.01</ele><time>2026-05-13T21:25:04.000Z</time></trkpt>
        <trkpt lat="28.666211" lon="106.1310975"><ele>964.24</ele><time>2026-05-13T21:25:12.000Z</time></trkpt>
        <trkpt lat="28.666109" lon="106.1310913"><ele>964.16</ele><time>2026-05-13T21:25:20.000Z</time></trkpt>
        <trkpt lat="28.6660029" lon="106.1311003"><ele>964.13</ele><time>2026-05-13T21:25:30.000Z</time></trkpt>
        <trkpt lat="28.6659028" lon="106.131137"><ele>963.87</ele><time>2026-05-13T21:25:40.000Z</time></trkpt>
        <trkpt lat="28.6658203" lon="106.1312132"><ele>964.14</ele><time>2026-05-13T21:25:50.000Z</time></trkpt>
        <trkpt lat="28.6657464" lon="106.1313032"><ele>964.48</ele><time>2026-05-13T21:26:00.000Z</time></trkpt>
        <trkpt lat="28.6656606" lon="106.1313818"><ele>964.24</ele><time>2026-05-13T21:26:10.000Z</time></trkpt>
        <trkpt lat="28.6655659" lon="106.1314324"><ele>963.96</ele><time>2026-05-13T21:26:20.000Z</time></trkpt>
        <trkpt lat="28.6654685" lon="106.1314569"><ele>962.14</ele><time>2026-05-13T21:26:28.000Z</time></trkpt>
        <trkpt lat="28.6653722" lon="106.1314303"><ele>960.51</ele><time>2026-05-13T21:26:36.000Z</time></trkpt>
        <trkpt lat="28.6652759" lon="106.131419"><ele>960.04</ele><time>2026-05-13T21:26:46.000Z</time></trkpt>
        <trkpt lat="28.665176" lon="106.131413"><ele>959.41</ele><time>2026-05-13T21:26:56.000Z</time></trkpt>
        <trkpt lat="28.6650796" lon="106.1314455"><ele>959.29</ele><time>2026-05-13T21:27:06.000Z</time></trkpt>
        <trkpt lat="28.6649888" lon="106.1315068"><ele>959.04</ele><time>2026-05-13T21:27:16.000Z</time></trkpt>
        <trkpt lat="28.6649097" lon="106.1315704"><ele>958.48</ele><time>2026-05-13T21:27:24.000Z</time></trkpt>
        <trkpt lat="28.6648399" lon="106.1316518"><ele>958.26</ele><time>2026-05-13T21:27:32.000Z</time></trkpt>
        <trkpt lat="28.6647776" lon="106.1317393"><ele>957.85</ele><time>2026-05-13T21:27:40.000Z</time></trkpt>
        <trkpt lat="28.6647106" lon="106.1318201"><ele>957.54</ele><time>2026-05-13T21:27:50.000Z</time></trkpt>
        <trkpt lat="28.6646396" lon="106.1318995"><ele>957.49</ele><time>2026-05-13T21:28:00.000Z</time></trkpt>
        <trkpt lat="28.6645719" lon="106.1319793"><ele>957.5</ele><time>2026-05-13T21:28:10.000Z</time></trkpt>
        <trkpt lat="28.6645063" lon="106.1320619"><ele>958</ele><time>2026-05-13T21:28:20.000Z</time></trkpt>
        <trkpt lat="28.6644517" lon="106.1321611"><ele>958.3</ele><time>2026-05-13T21:28:30.000Z</time></trkpt>
        <trkpt lat="28.6644177" lon="106.1322627"><ele>958.36</ele><time>2026-05-13T21:28:40.000Z</time></trkpt>
        <trkpt lat="28.6643988" lon="106.132367"><ele>958.27</ele><time>2026-05-13T21:28:50.000Z</time></trkpt>
        <trkpt lat="28.6643734" lon="106.1324794"><ele>958.68</ele><time>2026-05-13T21:29:00.000Z</time></trkpt>
        <trkpt lat="28.6643734" lon="106.1324794"><ele>958.68</ele><time>2026-05-13T21:29:38.000Z</time></trkpt>
      </trkseg>
  </trk>
</gpx>